<?xml version="1.0" encoding="UTF-8" standalone="no" ?>
<gpx xmlns="http://www.topografix.com/GPX/1/1" xmlns:xsi="http://www.w3.org/2001/XMLSchema-instance" xsi:schemaLocation="http://www.topografix.com/GPX/1/1 http://www.topografix.com/GPX/1/1/gpx.xsd" version="1.1" creator="VisuGPX - https://www.visugpx.com">
  <metadata>
    <name>Val d'Allos - le Gros Tapi</name>
    <desc><![CDATA[boucle depuis le Seignus Haut jusqu'au Gros Tapi puis crête vers l'Autapie.
Attention: à la montée l'ancien GR n'existe plus et a été transformé en piste de descente VTT !]]></desc>
  </metadata>
  <trk>
    <name><![CDATA[2022-07-14 09:47]]></name>
    <desc><![CDATA[<p>Heure de départ: 09:47 14 juil. 2022<br/>Heure d'arrivée: 14:25 14 juil. 2022<br/>Distance: 12,2 km (04:37)<br/>Temps déplacement: 03:34<br/>Vitesse moyenne: 2,64 km/h<br/>Vitesse moyenne mouv.: 3,42 km/h<br/>Vitesse Max.: 5,7 km/h<br/>Altitude minimale: 1552 m<br/>Altitude maximale: 2369 m<br/>Vitesse de montée: 1190,7 m/h<br/>Vitesse de descente: -910,9 m/h<br/>Gain d'altitude: 2381 m<br/>Perte d'altitude: -2390 m<br/>Temps de montée: 02:00<br/>Temps de descente: 02:37<br/></p><hr align="center" width="480" style="height: 2px; width: 517px"/>]]></desc>
    <trkseg>
      <trkpt lat="44.23522" lon="6.61943">
        <ele>1633.7</ele>
        <time>2022-07-14T07:47:36Z</time>
      </trkpt>
      <trkpt lat="44.23514" lon="6.61948">
        <ele>1636.2</ele>
        <time>2022-07-14T07:47:45Z</time>
      </trkpt>
      <trkpt lat="44.23505" lon="6.61953">
        <ele>1638.5</ele>
        <time>2022-07-14T07:47:56Z</time>
      </trkpt>
      <trkpt lat="44.23497" lon="6.6196">
        <ele>1640.2</ele>
        <time>2022-07-14T07:48:06Z</time>
      </trkpt>
      <trkpt lat="44.23489" lon="6.61967">
        <ele>1641.7</ele>
        <time>2022-07-14T07:48:16Z</time>
      </trkpt>
      <trkpt lat="44.2348" lon="6.61973">
        <ele>1643.5</ele>
        <time>2022-07-14T07:48:26Z</time>
      </trkpt>
      <trkpt lat="44.23473" lon="6.61983">
        <ele>1644.6</ele>
        <time>2022-07-14T07:48:35Z</time>
      </trkpt>
      <trkpt lat="44.23468" lon="6.61994">
        <ele>1645.2</ele>
        <time>2022-07-14T07:48:44Z</time>
      </trkpt>
      <trkpt lat="44.23463" lon="6.62004">
        <ele>1645.8</ele>
        <time>2022-07-14T07:48:52Z</time>
      </trkpt>
      <trkpt lat="44.23458" lon="6.62017">
        <ele>1645.4</ele>
        <time>2022-07-14T07:49:02Z</time>
      </trkpt>
      <trkpt lat="44.23456" lon="6.6203">
        <ele>1644</ele>
        <time>2022-07-14T07:49:10Z</time>
      </trkpt>
      <trkpt lat="44.23449" lon="6.62038">
        <ele>1645.6</ele>
        <time>2022-07-14T07:49:17Z</time>
      </trkpt>
      <trkpt lat="44.23442" lon="6.62045">
        <ele>1647.4</ele>
        <time>2022-07-14T07:49:25Z</time>
      </trkpt>
      <trkpt lat="44.23434" lon="6.62051">
        <ele>1649.5</ele>
        <time>2022-07-14T07:49:37Z</time>
      </trkpt>
      <trkpt lat="44.23425" lon="6.62058">
        <ele>1651.1</ele>
        <time>2022-07-14T07:49:46Z</time>
      </trkpt>
      <trkpt lat="44.23417" lon="6.62064">
        <ele>1652.7</ele>
        <time>2022-07-14T07:49:59Z</time>
      </trkpt>
      <trkpt lat="44.23408" lon="6.62069">
        <ele>1655.3</ele>
        <time>2022-07-14T07:50:11Z</time>
      </trkpt>
      <trkpt lat="44.23398" lon="6.62066">
        <ele>1659.5</ele>
        <time>2022-07-14T07:50:28Z</time>
      </trkpt>
      <trkpt lat="44.23392" lon="6.62075">
        <ele>1659.8</ele>
        <time>2022-07-14T07:50:37Z</time>
      </trkpt>
      <trkpt lat="44.23383" lon="6.6208">
        <ele>1661.4</ele>
        <time>2022-07-14T07:50:47Z</time>
      </trkpt>
      <trkpt lat="44.23374" lon="6.62085">
        <ele>1661.9</ele>
        <time>2022-07-14T07:50:56Z</time>
      </trkpt>
      <trkpt lat="44.23367" lon="6.62093">
        <ele>1661.5</ele>
        <time>2022-07-14T07:51:04Z</time>
      </trkpt>
      <trkpt lat="44.23359" lon="6.621">
        <ele>1661</ele>
        <time>2022-07-14T07:51:13Z</time>
      </trkpt>
      <trkpt lat="44.2335" lon="6.62102">
        <ele>1663</ele>
        <time>2022-07-14T07:51:23Z</time>
      </trkpt>
      <trkpt lat="44.2334" lon="6.62102">
        <ele>1665.4</ele>
        <time>2022-07-14T07:51:32Z</time>
      </trkpt>
      <trkpt lat="44.23331" lon="6.62105">
        <ele>1666.7</ele>
        <time>2022-07-14T07:51:42Z</time>
      </trkpt>
      <trkpt lat="44.23321" lon="6.62108">
        <ele>1667.6</ele>
        <time>2022-07-14T07:51:51Z</time>
      </trkpt>
      <trkpt lat="44.23312" lon="6.62113">
        <ele>1668.1</ele>
        <time>2022-07-14T07:52:00Z</time>
      </trkpt>
      <trkpt lat="44.23302" lon="6.62116">
        <ele>1668.9</ele>
        <time>2022-07-14T07:52:09Z</time>
      </trkpt>
      <trkpt lat="44.23294" lon="6.6212">
        <ele>1668.7</ele>
        <time>2022-07-14T07:52:17Z</time>
      </trkpt>
      <trkpt lat="44.23285" lon="6.62122">
        <ele>1669.6</ele>
        <time>2022-07-14T07:52:26Z</time>
      </trkpt>
      <trkpt lat="44.23276" lon="6.62124">
        <ele>1670</ele>
        <time>2022-07-14T07:52:35Z</time>
      </trkpt>
      <trkpt lat="44.23266" lon="6.62124">
        <ele>1671.2</ele>
        <time>2022-07-14T07:52:45Z</time>
      </trkpt>
      <trkpt lat="44.23257" lon="6.6212">
        <ele>1673.7</ele>
        <time>2022-07-14T07:52:54Z</time>
      </trkpt>
      <trkpt lat="44.23248" lon="6.6212">
        <ele>1674.7</ele>
        <time>2022-07-14T07:53:02Z</time>
      </trkpt>
      <trkpt lat="44.23238" lon="6.62119">
        <ele>1675.4</ele>
        <time>2022-07-14T07:53:11Z</time>
      </trkpt>
      <trkpt lat="44.23228" lon="6.62117">
        <ele>1676.5</ele>
        <time>2022-07-14T07:53:20Z</time>
      </trkpt>
      <trkpt lat="44.23219" lon="6.62115">
        <ele>1677.1</ele>
        <time>2022-07-14T07:53:28Z</time>
      </trkpt>
      <trkpt lat="44.2321" lon="6.62113">
        <ele>1677.5</ele>
        <time>2022-07-14T07:53:36Z</time>
      </trkpt>
      <trkpt lat="44.232" lon="6.62109">
        <ele>1678.2</ele>
        <time>2022-07-14T07:53:45Z</time>
      </trkpt>
      <trkpt lat="44.23192" lon="6.62104">
        <ele>1679.1</ele>
        <time>2022-07-14T07:53:54Z</time>
      </trkpt>
      <trkpt lat="44.23184" lon="6.62098">
        <ele>1680</ele>
        <time>2022-07-14T07:54:03Z</time>
      </trkpt>
      <trkpt lat="44.23177" lon="6.6209">
        <ele>1681.4</ele>
        <time>2022-07-14T07:54:12Z</time>
      </trkpt>
      <trkpt lat="44.23168" lon="6.62085">
        <ele>1681.8</ele>
        <time>2022-07-14T07:54:21Z</time>
      </trkpt>
      <trkpt lat="44.23161" lon="6.62077">
        <ele>1682.6</ele>
        <time>2022-07-14T07:54:32Z</time>
      </trkpt>
      <trkpt lat="44.23155" lon="6.62067">
        <ele>1684.1</ele>
        <time>2022-07-14T07:54:42Z</time>
      </trkpt>
      <trkpt lat="44.23148" lon="6.62058">
        <ele>1685.6</ele>
        <time>2022-07-14T07:54:51Z</time>
      </trkpt>
      <trkpt lat="44.23142" lon="6.62048">
        <ele>1687.3</ele>
        <time>2022-07-14T07:55:01Z</time>
      </trkpt>
      <trkpt lat="44.23136" lon="6.62037">
        <ele>1689.2</ele>
        <time>2022-07-14T07:55:11Z</time>
      </trkpt>
      <trkpt lat="44.23129" lon="6.62029">
        <ele>1690</ele>
        <time>2022-07-14T07:55:21Z</time>
      </trkpt>
      <trkpt lat="44.23122" lon="6.62021">
        <ele>1690.6</ele>
        <time>2022-07-14T07:55:30Z</time>
      </trkpt>
      <trkpt lat="44.23116" lon="6.62011">
        <ele>1692.3</ele>
        <time>2022-07-14T07:55:39Z</time>
      </trkpt>
      <trkpt lat="44.23109" lon="6.62004">
        <ele>1693.1</ele>
        <time>2022-07-14T07:55:49Z</time>
      </trkpt>
      <trkpt lat="44.23101" lon="6.61996">
        <ele>1694</ele>
        <time>2022-07-14T07:56:00Z</time>
      </trkpt>
      <trkpt lat="44.23093" lon="6.61989">
        <ele>1694.6</ele>
        <time>2022-07-14T07:56:09Z</time>
      </trkpt>
      <trkpt lat="44.23087" lon="6.61979">
        <ele>1695.8</ele>
        <time>2022-07-14T07:56:18Z</time>
      </trkpt>
      <trkpt lat="44.2308" lon="6.61971">
        <ele>1696.7</ele>
        <time>2022-07-14T07:56:44Z</time>
      </trkpt>
      <trkpt lat="44.23074" lon="6.6196">
        <ele>1698.3</ele>
        <time>2022-07-14T07:56:55Z</time>
      </trkpt>
      <trkpt lat="44.23068" lon="6.61949">
        <ele>1699.5</ele>
        <time>2022-07-14T07:57:07Z</time>
      </trkpt>
      <trkpt lat="44.23063" lon="6.61939">
        <ele>1700.3</ele>
        <time>2022-07-14T07:57:15Z</time>
      </trkpt>
      <trkpt lat="44.23057" lon="6.6193">
        <ele>1700.6</ele>
        <time>2022-07-14T07:57:23Z</time>
      </trkpt>
      <trkpt lat="44.23054" lon="6.61917">
        <ele>1702.3</ele>
        <time>2022-07-14T07:57:32Z</time>
      </trkpt>
      <trkpt lat="44.23048" lon="6.61906">
        <ele>1703.6</ele>
        <time>2022-07-14T07:57:40Z</time>
      </trkpt>
      <trkpt lat="44.2304" lon="6.61898">
        <ele>1703.3</ele>
        <time>2022-07-14T07:57:47Z</time>
      </trkpt>
      <trkpt lat="44.23033" lon="6.61889">
        <ele>1703.6</ele>
        <time>2022-07-14T07:57:56Z</time>
      </trkpt>
      <trkpt lat="44.23029" lon="6.61878">
        <ele>1704.7</ele>
        <time>2022-07-14T07:58:06Z</time>
      </trkpt>
      <trkpt lat="44.23023" lon="6.61867">
        <ele>1705.8</ele>
        <time>2022-07-14T07:58:16Z</time>
      </trkpt>
      <trkpt lat="44.23021" lon="6.61854">
        <ele>1708.2</ele>
        <time>2022-07-14T07:58:27Z</time>
      </trkpt>
      <trkpt lat="44.23014" lon="6.61845">
        <ele>1709.2</ele>
        <time>2022-07-14T07:58:38Z</time>
      </trkpt>
      <trkpt lat="44.23008" lon="6.61835">
        <ele>1710</ele>
        <time>2022-07-14T07:58:47Z</time>
      </trkpt>
      <trkpt lat="44.23002" lon="6.61826">
        <ele>1710.6</ele>
        <time>2022-07-14T07:58:57Z</time>
      </trkpt>
      <trkpt lat="44.22995" lon="6.61816">
        <ele>1712</ele>
        <time>2022-07-14T07:59:08Z</time>
      </trkpt>
      <trkpt lat="44.22989" lon="6.61807">
        <ele>1712.7</ele>
        <time>2022-07-14T07:59:18Z</time>
      </trkpt>
      <trkpt lat="44.22984" lon="6.61796">
        <ele>1714.4</ele>
        <time>2022-07-14T07:59:29Z</time>
      </trkpt>
      <trkpt lat="44.22982" lon="6.61783">
        <ele>1716.9</ele>
        <time>2022-07-14T07:59:38Z</time>
      </trkpt>
      <trkpt lat="44.22978" lon="6.61772">
        <ele>1717.9</ele>
        <time>2022-07-14T07:59:47Z</time>
      </trkpt>
      <trkpt lat="44.22973" lon="6.61759">
        <ele>1718.6</ele>
        <time>2022-07-14T07:59:57Z</time>
      </trkpt>
      <trkpt lat="44.2297" lon="6.61746">
        <ele>1720</ele>
        <time>2022-07-14T08:00:06Z</time>
      </trkpt>
      <trkpt lat="44.22966" lon="6.61735">
        <ele>1720.8</ele>
        <time>2022-07-14T08:00:15Z</time>
      </trkpt>
      <trkpt lat="44.2296" lon="6.61725">
        <ele>1721.3</ele>
        <time>2022-07-14T08:00:25Z</time>
      </trkpt>
      <trkpt lat="44.22955" lon="6.61714">
        <ele>1722.6</ele>
        <time>2022-07-14T08:00:36Z</time>
      </trkpt>
      <trkpt lat="44.22962" lon="6.61707">
        <ele>1725.9</ele>
        <time>2022-07-14T08:00:52Z</time>
      </trkpt>
      <trkpt lat="44.22971" lon="6.61714">
        <ele>1726.5</ele>
        <time>2022-07-14T08:01:00Z</time>
      </trkpt>
      <trkpt lat="44.22978" lon="6.61723">
        <ele>1726.5</ele>
        <time>2022-07-14T08:01:09Z</time>
      </trkpt>
      <trkpt lat="44.22985" lon="6.61732">
        <ele>1727.1</ele>
        <time>2022-07-14T08:01:19Z</time>
      </trkpt>
      <trkpt lat="44.22992" lon="6.61741">
        <ele>1727.7</ele>
        <time>2022-07-14T08:01:29Z</time>
      </trkpt>
      <trkpt lat="44.22999" lon="6.6175">
        <ele>1727.6</ele>
        <time>2022-07-14T08:01:38Z</time>
      </trkpt>
      <trkpt lat="44.23006" lon="6.61759">
        <ele>1728.9</ele>
        <time>2022-07-14T08:01:48Z</time>
      </trkpt>
      <trkpt lat="44.23013" lon="6.61768">
        <ele>1729.6</ele>
        <time>2022-07-14T08:01:58Z</time>
      </trkpt>
      <trkpt lat="44.2302" lon="6.61777">
        <ele>1729.9</ele>
        <time>2022-07-14T08:02:08Z</time>
      </trkpt>
      <trkpt lat="44.23029" lon="6.61785">
        <ele>1730.2</ele>
        <time>2022-07-14T08:02:17Z</time>
      </trkpt>
      <trkpt lat="44.23036" lon="6.61792">
        <ele>1731</ele>
        <time>2022-07-14T08:02:25Z</time>
      </trkpt>
      <trkpt lat="44.23045" lon="6.61797">
        <ele>1733.4</ele>
        <time>2022-07-14T08:02:34Z</time>
      </trkpt>
      <trkpt lat="44.23053" lon="6.61806">
        <ele>1733.9</ele>
        <time>2022-07-14T08:02:43Z</time>
      </trkpt>
      <trkpt lat="44.2306" lon="6.61816">
        <ele>1734.5</ele>
        <time>2022-07-14T08:02:52Z</time>
      </trkpt>
      <trkpt lat="44.23067" lon="6.61824">
        <ele>1735.7</ele>
        <time>2022-07-14T08:03:00Z</time>
      </trkpt>
      <trkpt lat="44.23072" lon="6.61835">
        <ele>1735.5</ele>
        <time>2022-07-14T08:03:10Z</time>
      </trkpt>
      <trkpt lat="44.23078" lon="6.61845">
        <ele>1735.8</ele>
        <time>2022-07-14T08:03:19Z</time>
      </trkpt>
      <trkpt lat="44.23086" lon="6.61853">
        <ele>1736.8</ele>
        <time>2022-07-14T08:03:29Z</time>
      </trkpt>
      <trkpt lat="44.23093" lon="6.6186">
        <ele>1737.5</ele>
        <time>2022-07-14T08:03:38Z</time>
      </trkpt>
      <trkpt lat="44.231" lon="6.61868">
        <ele>1737.2</ele>
        <time>2022-07-14T08:03:48Z</time>
      </trkpt>
      <trkpt lat="44.23109" lon="6.61874">
        <ele>1738</ele>
        <time>2022-07-14T08:03:58Z</time>
      </trkpt>
      <trkpt lat="44.23118" lon="6.6188">
        <ele>1738.9</ele>
        <time>2022-07-14T08:04:08Z</time>
      </trkpt>
      <trkpt lat="44.23126" lon="6.61887">
        <ele>1738.8</ele>
        <time>2022-07-14T08:04:16Z</time>
      </trkpt>
      <trkpt lat="44.23133" lon="6.61895">
        <ele>1738.2</ele>
        <time>2022-07-14T08:04:25Z</time>
      </trkpt>
      <trkpt lat="44.23142" lon="6.61901">
        <ele>1738.6</ele>
        <time>2022-07-14T08:04:34Z</time>
      </trkpt>
      <trkpt lat="44.2315" lon="6.61907">
        <ele>1739.3</ele>
        <time>2022-07-14T08:04:43Z</time>
      </trkpt>
      <trkpt lat="44.2316" lon="6.61911">
        <ele>1740.7</ele>
        <time>2022-07-14T08:04:51Z</time>
      </trkpt>
      <trkpt lat="44.23168" lon="6.61917">
        <ele>1741.2</ele>
        <time>2022-07-14T08:05:00Z</time>
      </trkpt>
      <trkpt lat="44.23177" lon="6.61922">
        <ele>1741</ele>
        <time>2022-07-14T08:05:09Z</time>
      </trkpt>
      <trkpt lat="44.23186" lon="6.61925">
        <ele>1742.1</ele>
        <time>2022-07-14T08:05:17Z</time>
      </trkpt>
      <trkpt lat="44.23196" lon="6.61928">
        <ele>1743.2</ele>
        <time>2022-07-14T08:05:26Z</time>
      </trkpt>
      <trkpt lat="44.23205" lon="6.61929">
        <ele>1743.5</ele>
        <time>2022-07-14T08:05:33Z</time>
      </trkpt>
      <trkpt lat="44.23214" lon="6.6193">
        <ele>1744</ele>
        <time>2022-07-14T08:05:42Z</time>
      </trkpt>
      <trkpt lat="44.23223" lon="6.61927">
        <ele>1745.5</ele>
        <time>2022-07-14T08:05:52Z</time>
      </trkpt>
      <trkpt lat="44.23233" lon="6.61924">
        <ele>1746</ele>
        <time>2022-07-14T08:06:01Z</time>
      </trkpt>
      <trkpt lat="44.23242" lon="6.61922">
        <ele>1746.1</ele>
        <time>2022-07-14T08:06:09Z</time>
      </trkpt>
      <trkpt lat="44.23251" lon="6.6192">
        <ele>1746.1</ele>
        <time>2022-07-14T08:06:17Z</time>
      </trkpt>
      <trkpt lat="44.23261" lon="6.61918">
        <ele>1745.5</ele>
        <time>2022-07-14T08:06:25Z</time>
      </trkpt>
      <trkpt lat="44.23267" lon="6.61908">
        <ele>1746.8</ele>
        <time>2022-07-14T08:06:34Z</time>
      </trkpt>
      <trkpt lat="44.23267" lon="6.61895">
        <ele>1749.4</ele>
        <time>2022-07-14T08:06:42Z</time>
      </trkpt>
      <trkpt lat="44.23264" lon="6.61883">
        <ele>1752.5</ele>
        <time>2022-07-14T08:06:56Z</time>
      </trkpt>
      <trkpt lat="44.23254" lon="6.61885">
        <ele>1753.3</ele>
        <time>2022-07-14T08:07:05Z</time>
      </trkpt>
      <trkpt lat="44.23245" lon="6.61886">
        <ele>1754.1</ele>
        <time>2022-07-14T08:07:14Z</time>
      </trkpt>
      <trkpt lat="44.23236" lon="6.61885">
        <ele>1755.3</ele>
        <time>2022-07-14T08:07:23Z</time>
      </trkpt>
      <trkpt lat="44.23227" lon="6.61889">
        <ele>1755.3</ele>
        <time>2022-07-14T08:07:34Z</time>
      </trkpt>
      <trkpt lat="44.23218" lon="6.61892">
        <ele>1755.2</ele>
        <time>2022-07-14T08:07:44Z</time>
      </trkpt>
      <trkpt lat="44.23208" lon="6.6189">
        <ele>1756.1</ele>
        <time>2022-07-14T08:07:55Z</time>
      </trkpt>
      <trkpt lat="44.23199" lon="6.61887">
        <ele>1757.3</ele>
        <time>2022-07-14T08:08:04Z</time>
      </trkpt>
      <trkpt lat="44.23192" lon="6.6188">
        <ele>1758.7</ele>
        <time>2022-07-14T08:08:14Z</time>
      </trkpt>
      <trkpt lat="44.23185" lon="6.6187">
        <ele>1759.8</ele>
        <time>2022-07-14T08:08:24Z</time>
      </trkpt>
      <trkpt lat="44.23179" lon="6.6186">
        <ele>1760.7</ele>
        <time>2022-07-14T08:08:33Z</time>
      </trkpt>
      <trkpt lat="44.23172" lon="6.6185">
        <ele>1761.6</ele>
        <time>2022-07-14T08:08:43Z</time>
      </trkpt>
      <trkpt lat="44.23167" lon="6.61839">
        <ele>1762.8</ele>
        <time>2022-07-14T08:08:52Z</time>
      </trkpt>
      <trkpt lat="44.23162" lon="6.61828">
        <ele>1764.1</ele>
        <time>2022-07-14T08:09:03Z</time>
      </trkpt>
      <trkpt lat="44.23156" lon="6.61819">
        <ele>1764.8</ele>
        <time>2022-07-14T08:09:12Z</time>
      </trkpt>
      <trkpt lat="44.2315" lon="6.61809">
        <ele>1766.1</ele>
        <time>2022-07-14T08:09:24Z</time>
      </trkpt>
      <trkpt lat="44.23144" lon="6.61798">
        <ele>1767.7</ele>
        <time>2022-07-14T08:09:34Z</time>
      </trkpt>
      <trkpt lat="44.23138" lon="6.61788">
        <ele>1769</ele>
        <time>2022-07-14T08:09:45Z</time>
      </trkpt>
      <trkpt lat="44.23132" lon="6.61778">
        <ele>1769.5</ele>
        <time>2022-07-14T08:09:54Z</time>
      </trkpt>
      <trkpt lat="44.23125" lon="6.61769">
        <ele>1769.9</ele>
        <time>2022-07-14T08:10:39Z</time>
      </trkpt>
      <trkpt lat="44.23119" lon="6.61759">
        <ele>1771.1</ele>
        <time>2022-07-14T08:10:50Z</time>
      </trkpt>
      <trkpt lat="44.23114" lon="6.61746">
        <ele>1773</ele>
        <time>2022-07-14T08:11:01Z</time>
      </trkpt>
      <trkpt lat="44.2311" lon="6.61735">
        <ele>1773.8</ele>
        <time>2022-07-14T08:11:12Z</time>
      </trkpt>
      <trkpt lat="44.23108" lon="6.61723">
        <ele>1774.8</ele>
        <time>2022-07-14T08:11:29Z</time>
      </trkpt>
      <trkpt lat="44.23103" lon="6.61711">
        <ele>1775.6</ele>
        <time>2022-07-14T08:11:40Z</time>
      </trkpt>
      <trkpt lat="44.23099" lon="6.61699">
        <ele>1777</ele>
        <time>2022-07-14T08:11:51Z</time>
      </trkpt>
      <trkpt lat="44.23094" lon="6.61689">
        <ele>1778</ele>
        <time>2022-07-14T08:12:03Z</time>
      </trkpt>
      <trkpt lat="44.23087" lon="6.61679">
        <ele>1779</ele>
        <time>2022-07-14T08:12:14Z</time>
      </trkpt>
      <trkpt lat="44.2308" lon="6.6167">
        <ele>1780.2</ele>
        <time>2022-07-14T08:12:25Z</time>
      </trkpt>
      <trkpt lat="44.23074" lon="6.6166">
        <ele>1780.9</ele>
        <time>2022-07-14T08:12:36Z</time>
      </trkpt>
      <trkpt lat="44.23069" lon="6.61649">
        <ele>1782.4</ele>
        <time>2022-07-14T08:12:47Z</time>
      </trkpt>
      <trkpt lat="44.23064" lon="6.61638">
        <ele>1784.3</ele>
        <time>2022-07-14T08:12:57Z</time>
      </trkpt>
      <trkpt lat="44.23057" lon="6.61628">
        <ele>1785.4</ele>
        <time>2022-07-14T08:13:07Z</time>
      </trkpt>
      <trkpt lat="44.23051" lon="6.61618">
        <ele>1786.7</ele>
        <time>2022-07-14T08:13:18Z</time>
      </trkpt>
      <trkpt lat="44.23045" lon="6.61608">
        <ele>1787.8</ele>
        <time>2022-07-14T08:13:29Z</time>
      </trkpt>
      <trkpt lat="44.2304" lon="6.61597">
        <ele>1788.8</ele>
        <time>2022-07-14T08:13:39Z</time>
      </trkpt>
      <trkpt lat="44.23035" lon="6.61586">
        <ele>1790.5</ele>
        <time>2022-07-14T08:13:49Z</time>
      </trkpt>
      <trkpt lat="44.23029" lon="6.61576">
        <ele>1792.5</ele>
        <time>2022-07-14T08:13:59Z</time>
      </trkpt>
      <trkpt lat="44.23021" lon="6.61568">
        <ele>1793.1</ele>
        <time>2022-07-14T08:14:10Z</time>
      </trkpt>
      <trkpt lat="44.23014" lon="6.61559">
        <ele>1793.8</ele>
        <time>2022-07-14T08:14:23Z</time>
      </trkpt>
      <trkpt lat="44.23008" lon="6.6155">
        <ele>1795</ele>
        <time>2022-07-14T08:14:32Z</time>
      </trkpt>
      <trkpt lat="44.23002" lon="6.6154">
        <ele>1796.5</ele>
        <time>2022-07-14T08:14:42Z</time>
      </trkpt>
      <trkpt lat="44.22995" lon="6.6153">
        <ele>1796.5</ele>
        <time>2022-07-14T08:14:53Z</time>
      </trkpt>
      <trkpt lat="44.2299" lon="6.61519">
        <ele>1797.2</ele>
        <time>2022-07-14T08:15:02Z</time>
      </trkpt>
      <trkpt lat="44.22985" lon="6.61508">
        <ele>1798</ele>
        <time>2022-07-14T08:15:11Z</time>
      </trkpt>
      <trkpt lat="44.22981" lon="6.61495">
        <ele>1799.2</ele>
        <time>2022-07-14T08:15:20Z</time>
      </trkpt>
      <trkpt lat="44.22975" lon="6.61484">
        <ele>1799</ele>
        <time>2022-07-14T08:15:29Z</time>
      </trkpt>
      <trkpt lat="44.22972" lon="6.61471">
        <ele>1800.1</ele>
        <time>2022-07-14T08:15:40Z</time>
      </trkpt>
      <trkpt lat="44.22968" lon="6.61458">
        <ele>1801.7</ele>
        <time>2022-07-14T08:15:49Z</time>
      </trkpt>
      <trkpt lat="44.22962" lon="6.61448">
        <ele>1801.9</ele>
        <time>2022-07-14T08:15:58Z</time>
      </trkpt>
      <trkpt lat="44.22957" lon="6.61436">
        <ele>1803.3</ele>
        <time>2022-07-14T08:16:08Z</time>
      </trkpt>
      <trkpt lat="44.22951" lon="6.61425">
        <ele>1804.5</ele>
        <time>2022-07-14T08:16:17Z</time>
      </trkpt>
      <trkpt lat="44.22944" lon="6.61417">
        <ele>1804.8</ele>
        <time>2022-07-14T08:16:26Z</time>
      </trkpt>
      <trkpt lat="44.22936" lon="6.61409">
        <ele>1806</ele>
        <time>2022-07-14T08:16:34Z</time>
      </trkpt>
      <trkpt lat="44.22929" lon="6.61401">
        <ele>1806.9</ele>
        <time>2022-07-14T08:16:40Z</time>
      </trkpt>
      <trkpt lat="44.22922" lon="6.61393">
        <ele>1807.3</ele>
        <time>2022-07-14T08:16:51Z</time>
      </trkpt>
      <trkpt lat="44.22913" lon="6.61387">
        <ele>1807.8</ele>
        <time>2022-07-14T08:17:01Z</time>
      </trkpt>
      <trkpt lat="44.22904" lon="6.61381">
        <ele>1809.7</ele>
        <time>2022-07-14T08:17:11Z</time>
      </trkpt>
      <trkpt lat="44.229" lon="6.6137">
        <ele>1812.4</ele>
        <time>2022-07-14T08:17:27Z</time>
      </trkpt>
      <trkpt lat="44.22907" lon="6.61362">
        <ele>1814.4</ele>
        <time>2022-07-14T08:18:21Z</time>
      </trkpt>
      <trkpt lat="44.22916" lon="6.61363">
        <ele>1814.4</ele>
        <time>2022-07-14T08:18:30Z</time>
      </trkpt>
      <trkpt lat="44.22925" lon="6.61369">
        <ele>1815.2</ele>
        <time>2022-07-14T08:18:40Z</time>
      </trkpt>
      <trkpt lat="44.22935" lon="6.61371">
        <ele>1817</ele>
        <time>2022-07-14T08:18:49Z</time>
      </trkpt>
      <trkpt lat="44.22944" lon="6.61375">
        <ele>1818.4</ele>
        <time>2022-07-14T08:18:59Z</time>
      </trkpt>
      <trkpt lat="44.22953" lon="6.61379">
        <ele>1819</ele>
        <time>2022-07-14T08:19:08Z</time>
      </trkpt>
      <trkpt lat="44.22963" lon="6.61383">
        <ele>1819.6</ele>
        <time>2022-07-14T08:19:17Z</time>
      </trkpt>
      <trkpt lat="44.2297" lon="6.61392">
        <ele>1818.5</ele>
        <time>2022-07-14T08:19:25Z</time>
      </trkpt>
      <trkpt lat="44.22976" lon="6.61402">
        <ele>1818.2</ele>
        <time>2022-07-14T08:19:33Z</time>
      </trkpt>
      <trkpt lat="44.22984" lon="6.6141">
        <ele>1819.2</ele>
        <time>2022-07-14T08:19:41Z</time>
      </trkpt>
      <trkpt lat="44.22989" lon="6.61422">
        <ele>1818.4</ele>
        <time>2022-07-14T08:19:51Z</time>
      </trkpt>
      <trkpt lat="44.22995" lon="6.61432">
        <ele>1819.1</ele>
        <time>2022-07-14T08:19:59Z</time>
      </trkpt>
      <trkpt lat="44.23002" lon="6.61441">
        <ele>1820.1</ele>
        <time>2022-07-14T08:20:08Z</time>
      </trkpt>
      <trkpt lat="44.23008" lon="6.61451">
        <ele>1819.6</ele>
        <time>2022-07-14T08:20:17Z</time>
      </trkpt>
      <trkpt lat="44.23015" lon="6.61459">
        <ele>1820.3</ele>
        <time>2022-07-14T08:20:25Z</time>
      </trkpt>
      <trkpt lat="44.23021" lon="6.61469">
        <ele>1820.4</ele>
        <time>2022-07-14T08:20:36Z</time>
      </trkpt>
      <trkpt lat="44.23025" lon="6.61457">
        <ele>1823.4</ele>
        <time>2022-07-14T08:20:53Z</time>
      </trkpt>
      <trkpt lat="44.23019" lon="6.61447">
        <ele>1823.3</ele>
        <time>2022-07-14T08:21:03Z</time>
      </trkpt>
      <trkpt lat="44.23013" lon="6.61437">
        <ele>1824.1</ele>
        <time>2022-07-14T08:21:14Z</time>
      </trkpt>
      <trkpt lat="44.23008" lon="6.61426">
        <ele>1825.2</ele>
        <time>2022-07-14T08:21:25Z</time>
      </trkpt>
      <trkpt lat="44.23004" lon="6.61414">
        <ele>1826.2</ele>
        <time>2022-07-14T08:21:35Z</time>
      </trkpt>
      <trkpt lat="44.23" lon="6.61402">
        <ele>1827.9</ele>
        <time>2022-07-14T08:21:45Z</time>
      </trkpt>
      <trkpt lat="44.22997" lon="6.61389">
        <ele>1829.8</ele>
        <time>2022-07-14T08:21:55Z</time>
      </trkpt>
      <trkpt lat="44.22993" lon="6.61377">
        <ele>1831.8</ele>
        <time>2022-07-14T08:22:05Z</time>
      </trkpt>
      <trkpt lat="44.2299" lon="6.61365">
        <ele>1834</ele>
        <time>2022-07-14T08:22:16Z</time>
      </trkpt>
      <trkpt lat="44.22987" lon="6.61353">
        <ele>1836.1</ele>
        <time>2022-07-14T08:22:28Z</time>
      </trkpt>
      <trkpt lat="44.22981" lon="6.61342">
        <ele>1837.1</ele>
        <time>2022-07-14T08:22:38Z</time>
      </trkpt>
      <trkpt lat="44.22973" lon="6.61336">
        <ele>1835.6</ele>
        <time>2022-07-14T08:22:49Z</time>
      </trkpt>
      <trkpt lat="44.22965" lon="6.61328">
        <ele>1836.9</ele>
        <time>2022-07-14T08:23:01Z</time>
      </trkpt>
      <trkpt lat="44.22957" lon="6.61322">
        <ele>1837.6</ele>
        <time>2022-07-14T08:23:12Z</time>
      </trkpt>
      <trkpt lat="44.2295" lon="6.61313">
        <ele>1839.5</ele>
        <time>2022-07-14T08:23:22Z</time>
      </trkpt>
      <trkpt lat="44.22941" lon="6.61308">
        <ele>1839</ele>
        <time>2022-07-14T08:23:31Z</time>
      </trkpt>
      <trkpt lat="44.22934" lon="6.61299">
        <ele>1839.5</ele>
        <time>2022-07-14T08:23:43Z</time>
      </trkpt>
      <trkpt lat="44.22929" lon="6.61289">
        <ele>1840.9</ele>
        <time>2022-07-14T08:23:53Z</time>
      </trkpt>
      <trkpt lat="44.22924" lon="6.61278">
        <ele>1842.3</ele>
        <time>2022-07-14T08:24:05Z</time>
      </trkpt>
      <trkpt lat="44.2292" lon="6.61265">
        <ele>1843.4</ele>
        <time>2022-07-14T08:24:15Z</time>
      </trkpt>
      <trkpt lat="44.22918" lon="6.61253">
        <ele>1844.9</ele>
        <time>2022-07-14T08:24:27Z</time>
      </trkpt>
      <trkpt lat="44.22915" lon="6.6124">
        <ele>1845.9</ele>
        <time>2022-07-14T08:24:38Z</time>
      </trkpt>
      <trkpt lat="44.22912" lon="6.61227">
        <ele>1846.7</ele>
        <time>2022-07-14T08:24:48Z</time>
      </trkpt>
      <trkpt lat="44.22913" lon="6.61214">
        <ele>1848.3</ele>
        <time>2022-07-14T08:24:58Z</time>
      </trkpt>
      <trkpt lat="44.22913" lon="6.612">
        <ele>1849.9</ele>
        <time>2022-07-14T08:26:26Z</time>
      </trkpt>
      <trkpt lat="44.22913" lon="6.61187">
        <ele>1851.2</ele>
        <time>2022-07-14T08:26:36Z</time>
      </trkpt>
      <trkpt lat="44.22911" lon="6.61175">
        <ele>1852.2</ele>
        <time>2022-07-14T08:26:49Z</time>
      </trkpt>
      <trkpt lat="44.22916" lon="6.61163">
        <ele>1853.1</ele>
        <time>2022-07-14T08:26:59Z</time>
      </trkpt>
      <trkpt lat="44.2292" lon="6.61151">
        <ele>1853.9</ele>
        <time>2022-07-14T08:27:08Z</time>
      </trkpt>
      <trkpt lat="44.22921" lon="6.61137">
        <ele>1854.6</ele>
        <time>2022-07-14T08:27:18Z</time>
      </trkpt>
      <trkpt lat="44.22922" lon="6.61124">
        <ele>1855.1</ele>
        <time>2022-07-14T08:27:26Z</time>
      </trkpt>
      <trkpt lat="44.22925" lon="6.61112">
        <ele>1855.9</ele>
        <time>2022-07-14T08:27:34Z</time>
      </trkpt>
      <trkpt lat="44.22928" lon="6.611">
        <ele>1856.4</ele>
        <time>2022-07-14T08:27:44Z</time>
      </trkpt>
      <trkpt lat="44.22929" lon="6.61086">
        <ele>1856.9</ele>
        <time>2022-07-14T08:27:53Z</time>
      </trkpt>
      <trkpt lat="44.22932" lon="6.61073">
        <ele>1857.6</ele>
        <time>2022-07-14T08:28:01Z</time>
      </trkpt>
      <trkpt lat="44.2293" lon="6.61061">
        <ele>1858.2</ele>
        <time>2022-07-14T08:28:08Z</time>
      </trkpt>
      <trkpt lat="44.22932" lon="6.61048">
        <ele>1859</ele>
        <time>2022-07-14T08:28:16Z</time>
      </trkpt>
      <trkpt lat="44.22932" lon="6.61034">
        <ele>1859.7</ele>
        <time>2022-07-14T08:28:25Z</time>
      </trkpt>
      <trkpt lat="44.22932" lon="6.6102">
        <ele>1860.7</ele>
        <time>2022-07-14T08:28:33Z</time>
      </trkpt>
      <trkpt lat="44.22935" lon="6.61007">
        <ele>1861.7</ele>
        <time>2022-07-14T08:28:44Z</time>
      </trkpt>
      <trkpt lat="44.22936" lon="6.60994">
        <ele>1862.7</ele>
        <time>2022-07-14T08:28:52Z</time>
      </trkpt>
      <trkpt lat="44.22938" lon="6.60982">
        <ele>1863.5</ele>
        <time>2022-07-14T08:29:01Z</time>
      </trkpt>
      <trkpt lat="44.2294" lon="6.60968">
        <ele>1864.5</ele>
        <time>2022-07-14T08:29:10Z</time>
      </trkpt>
      <trkpt lat="44.22943" lon="6.60955">
        <ele>1865.3</ele>
        <time>2022-07-14T08:29:19Z</time>
      </trkpt>
      <trkpt lat="44.22946" lon="6.60942">
        <ele>1866.5</ele>
        <time>2022-07-14T08:29:29Z</time>
      </trkpt>
      <trkpt lat="44.22949" lon="6.6093">
        <ele>1868.9</ele>
        <time>2022-07-14T08:29:41Z</time>
      </trkpt>
      <trkpt lat="44.22949" lon="6.60917">
        <ele>1870.8</ele>
        <time>2022-07-14T08:29:52Z</time>
      </trkpt>
      <trkpt lat="44.22951" lon="6.60904">
        <ele>1873.2</ele>
        <time>2022-07-14T08:30:04Z</time>
      </trkpt>
      <trkpt lat="44.22954" lon="6.60891">
        <ele>1875.7</ele>
        <time>2022-07-14T08:30:14Z</time>
      </trkpt>
      <trkpt lat="44.22956" lon="6.60879">
        <ele>1878.5</ele>
        <time>2022-07-14T08:30:25Z</time>
      </trkpt>
      <trkpt lat="44.22956" lon="6.60866">
        <ele>1881.4</ele>
        <time>2022-07-14T08:30:36Z</time>
      </trkpt>
      <trkpt lat="44.22961" lon="6.60855">
        <ele>1884.1</ele>
        <time>2022-07-14T08:30:49Z</time>
      </trkpt>
      <trkpt lat="44.2297" lon="6.60857">
        <ele>1883.8</ele>
        <time>2022-07-14T08:32:28Z</time>
      </trkpt>
      <trkpt lat="44.22976" lon="6.60847">
        <ele>1886.7</ele>
        <time>2022-07-14T08:32:40Z</time>
      </trkpt>
      <trkpt lat="44.22984" lon="6.60844">
        <ele>1889</ele>
        <time>2022-07-14T08:32:53Z</time>
      </trkpt>
      <trkpt lat="44.22993" lon="6.60846">
        <ele>1890</ele>
        <time>2022-07-14T08:33:02Z</time>
      </trkpt>
      <trkpt lat="44.23002" lon="6.60852">
        <ele>1890.5</ele>
        <time>2022-07-14T08:33:14Z</time>
      </trkpt>
      <trkpt lat="44.23008" lon="6.60862">
        <ele>1890.3</ele>
        <time>2022-07-14T08:33:23Z</time>
      </trkpt>
      <trkpt lat="44.23014" lon="6.60873">
        <ele>1890.9</ele>
        <time>2022-07-14T08:33:34Z</time>
      </trkpt>
      <trkpt lat="44.2302" lon="6.60883">
        <ele>1891.4</ele>
        <time>2022-07-14T08:33:43Z</time>
      </trkpt>
      <trkpt lat="44.23022" lon="6.60895">
        <ele>1891</ele>
        <time>2022-07-14T08:33:52Z</time>
      </trkpt>
      <trkpt lat="44.23024" lon="6.60908">
        <ele>1891.2</ele>
        <time>2022-07-14T08:34:01Z</time>
      </trkpt>
      <trkpt lat="44.23026" lon="6.60921">
        <ele>1891.2</ele>
        <time>2022-07-14T08:34:11Z</time>
      </trkpt>
      <trkpt lat="44.23026" lon="6.60934">
        <ele>1890.8</ele>
        <time>2022-07-14T08:34:22Z</time>
      </trkpt>
      <trkpt lat="44.23032" lon="6.60945">
        <ele>1892</ele>
        <time>2022-07-14T08:34:34Z</time>
      </trkpt>
      <trkpt lat="44.2304" lon="6.60952">
        <ele>1893.4</ele>
        <time>2022-07-14T08:34:48Z</time>
      </trkpt>
      <trkpt lat="44.23049" lon="6.60949">
        <ele>1895.6</ele>
        <time>2022-07-14T08:35:02Z</time>
      </trkpt>
      <trkpt lat="44.23058" lon="6.60945">
        <ele>1897.2</ele>
        <time>2022-07-14T08:35:13Z</time>
      </trkpt>
      <trkpt lat="44.23065" lon="6.60936">
        <ele>1898</ele>
        <time>2022-07-14T08:35:24Z</time>
      </trkpt>
      <trkpt lat="44.23065" lon="6.60923">
        <ele>1898.5</ele>
        <time>2022-07-14T08:35:48Z</time>
      </trkpt>
      <trkpt lat="44.23065" lon="6.6091">
        <ele>1899.1</ele>
        <time>2022-07-14T08:35:58Z</time>
      </trkpt>
      <trkpt lat="44.23062" lon="6.60897">
        <ele>1899.5</ele>
        <time>2022-07-14T08:36:08Z</time>
      </trkpt>
      <trkpt lat="44.23059" lon="6.60885">
        <ele>1899.9</ele>
        <time>2022-07-14T08:36:27Z</time>
      </trkpt>
      <trkpt lat="44.23057" lon="6.60872">
        <ele>1900.5</ele>
        <time>2022-07-14T08:36:37Z</time>
      </trkpt>
      <trkpt lat="44.23055" lon="6.60858">
        <ele>1901.1</ele>
        <time>2022-07-14T08:36:47Z</time>
      </trkpt>
      <trkpt lat="44.23055" lon="6.60846">
        <ele>1902.6</ele>
        <time>2022-07-14T08:36:58Z</time>
      </trkpt>
      <trkpt lat="44.23054" lon="6.60833">
        <ele>1903.7</ele>
        <time>2022-07-14T08:37:09Z</time>
      </trkpt>
      <trkpt lat="44.23052" lon="6.6082">
        <ele>1905</ele>
        <time>2022-07-14T08:37:18Z</time>
      </trkpt>
      <trkpt lat="44.2305" lon="6.60807">
        <ele>1906.2</ele>
        <time>2022-07-14T08:37:28Z</time>
      </trkpt>
      <trkpt lat="44.2305" lon="6.60794">
        <ele>1908.7</ele>
        <time>2022-07-14T08:37:40Z</time>
      </trkpt>
      <trkpt lat="44.23046" lon="6.60782">
        <ele>1910.9</ele>
        <time>2022-07-14T08:37:50Z</time>
      </trkpt>
      <trkpt lat="44.2304" lon="6.60771">
        <ele>1913.1</ele>
        <time>2022-07-14T08:38:03Z</time>
      </trkpt>
      <trkpt lat="44.23033" lon="6.60763">
        <ele>1915.4</ele>
        <time>2022-07-14T08:38:13Z</time>
      </trkpt>
      <trkpt lat="44.23026" lon="6.60753">
        <ele>1918</ele>
        <time>2022-07-14T08:38:23Z</time>
      </trkpt>
      <trkpt lat="44.2302" lon="6.60744">
        <ele>1920.7</ele>
        <time>2022-07-14T08:38:33Z</time>
      </trkpt>
      <trkpt lat="44.23011" lon="6.6074">
        <ele>1921.6</ele>
        <time>2022-07-14T08:39:28Z</time>
      </trkpt>
      <trkpt lat="44.23001" lon="6.60738">
        <ele>1922.5</ele>
        <time>2022-07-14T08:39:39Z</time>
      </trkpt>
      <trkpt lat="44.22992" lon="6.60738">
        <ele>1922.7</ele>
        <time>2022-07-14T08:39:48Z</time>
      </trkpt>
      <trkpt lat="44.22983" lon="6.60739">
        <ele>1922.6</ele>
        <time>2022-07-14T08:39:58Z</time>
      </trkpt>
      <trkpt lat="44.22973" lon="6.60741">
        <ele>1922.2</ele>
        <time>2022-07-14T08:40:07Z</time>
      </trkpt>
      <trkpt lat="44.22963" lon="6.60741">
        <ele>1923</ele>
        <time>2022-07-14T08:40:17Z</time>
      </trkpt>
      <trkpt lat="44.22953" lon="6.60739">
        <ele>1924.7</ele>
        <time>2022-07-14T08:40:27Z</time>
      </trkpt>
      <trkpt lat="44.22944" lon="6.6074">
        <ele>1925.1</ele>
        <time>2022-07-14T08:40:40Z</time>
      </trkpt>
      <trkpt lat="44.22935" lon="6.60741">
        <ele>1925.8</ele>
        <time>2022-07-14T08:40:52Z</time>
      </trkpt>
      <trkpt lat="44.22925" lon="6.6074">
        <ele>1927</ele>
        <time>2022-07-14T08:41:06Z</time>
      </trkpt>
      <trkpt lat="44.22916" lon="6.60739">
        <ele>1928.4</ele>
        <time>2022-07-14T08:41:18Z</time>
      </trkpt>
      <trkpt lat="44.22907" lon="6.60734">
        <ele>1931.6</ele>
        <time>2022-07-14T08:41:31Z</time>
      </trkpt>
      <trkpt lat="44.22898" lon="6.60733">
        <ele>1933.7</ele>
        <time>2022-07-14T08:41:42Z</time>
      </trkpt>
      <trkpt lat="44.22888" lon="6.60733">
        <ele>1935</ele>
        <time>2022-07-14T08:41:55Z</time>
      </trkpt>
      <trkpt lat="44.22879" lon="6.60731">
        <ele>1937.3</ele>
        <time>2022-07-14T08:42:11Z</time>
      </trkpt>
      <trkpt lat="44.2287" lon="6.60733">
        <ele>1938.4</ele>
        <time>2022-07-14T08:42:26Z</time>
      </trkpt>
      <trkpt lat="44.2286" lon="6.60734">
        <ele>1940</ele>
        <time>2022-07-14T08:42:41Z</time>
      </trkpt>
      <trkpt lat="44.22851" lon="6.60733">
        <ele>1942.1</ele>
        <time>2022-07-14T08:42:55Z</time>
      </trkpt>
      <trkpt lat="44.22841" lon="6.60734">
        <ele>1943.6</ele>
        <time>2022-07-14T08:43:08Z</time>
      </trkpt>
      <trkpt lat="44.22832" lon="6.60737">
        <ele>1944.4</ele>
        <time>2022-07-14T08:43:21Z</time>
      </trkpt>
      <trkpt lat="44.22823" lon="6.60739">
        <ele>1945.3</ele>
        <time>2022-07-14T08:43:34Z</time>
      </trkpt>
      <trkpt lat="44.22814" lon="6.60739">
        <ele>1946.7</ele>
        <time>2022-07-14T08:43:46Z</time>
      </trkpt>
      <trkpt lat="44.22805" lon="6.60743">
        <ele>1947</ele>
        <time>2022-07-14T08:44:01Z</time>
      </trkpt>
      <trkpt lat="44.22795" lon="6.60742">
        <ele>1948.1</ele>
        <time>2022-07-14T08:44:13Z</time>
      </trkpt>
      <trkpt lat="44.22786" lon="6.60741">
        <ele>1949.3</ele>
        <time>2022-07-14T08:44:23Z</time>
      </trkpt>
      <trkpt lat="44.22778" lon="6.60734">
        <ele>1951.5</ele>
        <time>2022-07-14T08:44:32Z</time>
      </trkpt>
      <trkpt lat="44.22772" lon="6.60724">
        <ele>1952.7</ele>
        <time>2022-07-14T08:44:41Z</time>
      </trkpt>
      <trkpt lat="44.22765" lon="6.60715">
        <ele>1953.1</ele>
        <time>2022-07-14T08:44:49Z</time>
      </trkpt>
      <trkpt lat="44.22758" lon="6.60706">
        <ele>1953.1</ele>
        <time>2022-07-14T08:44:59Z</time>
      </trkpt>
      <trkpt lat="44.22752" lon="6.60695">
        <ele>1953.4</ele>
        <time>2022-07-14T08:45:10Z</time>
      </trkpt>
      <trkpt lat="44.22746" lon="6.60684">
        <ele>1953.6</ele>
        <time>2022-07-14T08:45:19Z</time>
      </trkpt>
      <trkpt lat="44.22751" lon="6.60696">
        <ele>1953.1</ele>
        <time>2022-07-14T08:46:57Z</time>
      </trkpt>
      <trkpt lat="44.2276" lon="6.60703">
        <ele>1953.7</ele>
        <time>2022-07-14T08:47:06Z</time>
      </trkpt>
      <trkpt lat="44.22768" lon="6.60707">
        <ele>1954.7</ele>
        <time>2022-07-14T08:47:14Z</time>
      </trkpt>
      <trkpt lat="44.22775" lon="6.60715">
        <ele>1954.6</ele>
        <time>2022-07-14T08:47:27Z</time>
      </trkpt>
      <trkpt lat="44.22785" lon="6.60716">
        <ele>1954.7</ele>
        <time>2022-07-14T08:47:42Z</time>
      </trkpt>
      <trkpt lat="44.22794" lon="6.60713">
        <ele>1955.2</ele>
        <time>2022-07-14T08:47:51Z</time>
      </trkpt>
      <trkpt lat="44.22794" lon="6.60699">
        <ele>1957.7</ele>
        <time>2022-07-14T08:48:01Z</time>
      </trkpt>
      <trkpt lat="44.22798" lon="6.60688">
        <ele>1959.7</ele>
        <time>2022-07-14T08:48:12Z</time>
      </trkpt>
      <trkpt lat="44.22803" lon="6.60677">
        <ele>1961.5</ele>
        <time>2022-07-14T08:48:23Z</time>
      </trkpt>
      <trkpt lat="44.2281" lon="6.60669">
        <ele>1962.9</ele>
        <time>2022-07-14T08:48:36Z</time>
      </trkpt>
      <trkpt lat="44.22819" lon="6.60665">
        <ele>1964</ele>
        <time>2022-07-14T08:48:45Z</time>
      </trkpt>
      <trkpt lat="44.22827" lon="6.60659">
        <ele>1965.2</ele>
        <time>2022-07-14T08:48:55Z</time>
      </trkpt>
      <trkpt lat="44.22829" lon="6.60647">
        <ele>1966.6</ele>
        <time>2022-07-14T08:49:09Z</time>
      </trkpt>
      <trkpt lat="44.22832" lon="6.60635">
        <ele>1968</ele>
        <time>2022-07-14T08:49:23Z</time>
      </trkpt>
      <trkpt lat="44.22837" lon="6.60624">
        <ele>1969.6</ele>
        <time>2022-07-14T08:49:40Z</time>
      </trkpt>
      <trkpt lat="44.22841" lon="6.60612">
        <ele>1971.7</ele>
        <time>2022-07-14T08:49:59Z</time>
      </trkpt>
      <trkpt lat="44.22848" lon="6.60603">
        <ele>1973.9</ele>
        <time>2022-07-14T08:50:16Z</time>
      </trkpt>
      <trkpt lat="44.2285" lon="6.60591">
        <ele>1974.1</ele>
        <time>2022-07-14T08:50:28Z</time>
      </trkpt>
      <trkpt lat="44.22856" lon="6.6058">
        <ele>1975.3</ele>
        <time>2022-07-14T08:50:45Z</time>
      </trkpt>
      <trkpt lat="44.22863" lon="6.60572">
        <ele>1977.1</ele>
        <time>2022-07-14T08:51:02Z</time>
      </trkpt>
      <trkpt lat="44.22872" lon="6.60566">
        <ele>1980.6</ele>
        <time>2022-07-14T08:51:18Z</time>
      </trkpt>
      <trkpt lat="44.22879" lon="6.6056">
        <ele>1983.7</ele>
        <time>2022-07-14T08:51:34Z</time>
      </trkpt>
      <trkpt lat="44.22889" lon="6.60558">
        <ele>1988</ele>
        <time>2022-07-14T08:51:54Z</time>
      </trkpt>
      <trkpt lat="44.22891" lon="6.60546">
        <ele>1988</ele>
        <time>2022-07-14T08:52:08Z</time>
      </trkpt>
      <trkpt lat="44.22895" lon="6.60557">
        <ele>1990.6</ele>
        <time>2022-07-14T08:52:22Z</time>
      </trkpt>
      <trkpt lat="44.22897" lon="6.60569">
        <ele>1991.2</ele>
        <time>2022-07-14T08:52:32Z</time>
      </trkpt>
      <trkpt lat="44.22902" lon="6.60558">
        <ele>1993.3</ele>
        <time>2022-07-14T08:52:54Z</time>
      </trkpt>
      <trkpt lat="44.22909" lon="6.60549">
        <ele>1995.8</ele>
        <time>2022-07-14T08:53:22Z</time>
      </trkpt>
      <trkpt lat="44.22918" lon="6.60545">
        <ele>1999</ele>
        <time>2022-07-14T08:53:49Z</time>
      </trkpt>
      <trkpt lat="44.22927" lon="6.60548">
        <ele>2001.6</ele>
        <time>2022-07-14T08:55:21Z</time>
      </trkpt>
      <trkpt lat="44.22936" lon="6.60551">
        <ele>2004.1</ele>
        <time>2022-07-14T08:55:36Z</time>
      </trkpt>
      <trkpt lat="44.22944" lon="6.60546">
        <ele>2006.9</ele>
        <time>2022-07-14T08:55:54Z</time>
      </trkpt>
      <trkpt lat="44.22949" lon="6.60535">
        <ele>2009.3</ele>
        <time>2022-07-14T08:56:13Z</time>
      </trkpt>
      <trkpt lat="44.22957" lon="6.6053">
        <ele>2012.3</ele>
        <time>2022-07-14T08:56:30Z</time>
      </trkpt>
      <trkpt lat="44.22964" lon="6.60521">
        <ele>2014.8</ele>
        <time>2022-07-14T08:56:50Z</time>
      </trkpt>
      <trkpt lat="44.22972" lon="6.60516">
        <ele>2017.9</ele>
        <time>2022-07-14T08:57:05Z</time>
      </trkpt>
      <trkpt lat="44.2298" lon="6.6051">
        <ele>2020.1</ele>
        <time>2022-07-14T08:57:24Z</time>
      </trkpt>
      <trkpt lat="44.22987" lon="6.60501">
        <ele>2023.2</ele>
        <time>2022-07-14T08:57:39Z</time>
      </trkpt>
      <trkpt lat="44.22994" lon="6.60492">
        <ele>2026</ele>
        <time>2022-07-14T08:57:57Z</time>
      </trkpt>
      <trkpt lat="44.23001" lon="6.60483">
        <ele>2029.1</ele>
        <time>2022-07-14T08:58:10Z</time>
      </trkpt>
      <trkpt lat="44.23007" lon="6.60473">
        <ele>2032.5</ele>
        <time>2022-07-14T08:58:22Z</time>
      </trkpt>
      <trkpt lat="44.23009" lon="6.6046">
        <ele>2032.6</ele>
        <time>2022-07-14T08:58:33Z</time>
      </trkpt>
      <trkpt lat="44.23012" lon="6.60448">
        <ele>2033.4</ele>
        <time>2022-07-14T08:58:44Z</time>
      </trkpt>
      <trkpt lat="44.23013" lon="6.60435">
        <ele>2032.5</ele>
        <time>2022-07-14T08:58:59Z</time>
      </trkpt>
      <trkpt lat="44.23016" lon="6.60423">
        <ele>2032</ele>
        <time>2022-07-14T08:59:19Z</time>
      </trkpt>
      <trkpt lat="44.23019" lon="6.60412">
        <ele>2032.1</ele>
        <time>2022-07-14T08:59:28Z</time>
      </trkpt>
      <trkpt lat="44.23027" lon="6.60402">
        <ele>2033.7</ele>
        <time>2022-07-14T08:59:39Z</time>
      </trkpt>
      <trkpt lat="44.23032" lon="6.60391">
        <ele>2033.9</ele>
        <time>2022-07-14T08:59:48Z</time>
      </trkpt>
      <trkpt lat="44.23032" lon="6.60379">
        <ele>2035</ele>
        <time>2022-07-14T09:00:17Z</time>
      </trkpt>
      <trkpt lat="44.23041" lon="6.60377">
        <ele>2036.1</ele>
        <time>2022-07-14T09:00:27Z</time>
      </trkpt>
      <trkpt lat="44.23051" lon="6.60376">
        <ele>2037.1</ele>
        <time>2022-07-14T09:00:37Z</time>
      </trkpt>
      <trkpt lat="44.2306" lon="6.60375">
        <ele>2038.1</ele>
        <time>2022-07-14T09:00:47Z</time>
      </trkpt>
      <trkpt lat="44.23068" lon="6.60368">
        <ele>2038.7</ele>
        <time>2022-07-14T09:00:56Z</time>
      </trkpt>
      <trkpt lat="44.23075" lon="6.60359">
        <ele>2039.2</ele>
        <time>2022-07-14T09:03:55Z</time>
      </trkpt>
      <trkpt lat="44.23084" lon="6.60356">
        <ele>2040.3</ele>
        <time>2022-07-14T09:04:07Z</time>
      </trkpt>
      <trkpt lat="44.23093" lon="6.60355">
        <ele>2041</ele>
        <time>2022-07-14T09:04:18Z</time>
      </trkpt>
      <trkpt lat="44.23103" lon="6.60361">
        <ele>2041.4</ele>
        <time>2022-07-14T09:04:25Z</time>
      </trkpt>
      <trkpt lat="44.23112" lon="6.60358">
        <ele>2042.2</ele>
        <time>2022-07-14T09:04:36Z</time>
      </trkpt>
      <trkpt lat="44.2312" lon="6.60349">
        <ele>2043.1</ele>
        <time>2022-07-14T09:04:48Z</time>
      </trkpt>
      <trkpt lat="44.23126" lon="6.6034">
        <ele>2044.7</ele>
        <time>2022-07-14T09:04:57Z</time>
      </trkpt>
      <trkpt lat="44.2313" lon="6.60328">
        <ele>2047.2</ele>
        <time>2022-07-14T09:05:09Z</time>
      </trkpt>
      <trkpt lat="44.23134" lon="6.60317">
        <ele>2050.1</ele>
        <time>2022-07-14T09:05:28Z</time>
      </trkpt>
      <trkpt lat="44.23138" lon="6.60305">
        <ele>2053</ele>
        <time>2022-07-14T09:05:45Z</time>
      </trkpt>
      <trkpt lat="44.23143" lon="6.60295">
        <ele>2055.7</ele>
        <time>2022-07-14T09:06:05Z</time>
      </trkpt>
      <trkpt lat="44.2315" lon="6.60285">
        <ele>2058.1</ele>
        <time>2022-07-14T09:06:18Z</time>
      </trkpt>
      <trkpt lat="44.23156" lon="6.60276">
        <ele>2060.3</ele>
        <time>2022-07-14T09:06:31Z</time>
      </trkpt>
      <trkpt lat="44.23163" lon="6.60267">
        <ele>2062.3</ele>
        <time>2022-07-14T09:06:45Z</time>
      </trkpt>
      <trkpt lat="44.2317" lon="6.6026">
        <ele>2063.6</ele>
        <time>2022-07-14T09:06:57Z</time>
      </trkpt>
      <trkpt lat="44.23179" lon="6.60255">
        <ele>2063.9</ele>
        <time>2022-07-14T09:07:09Z</time>
      </trkpt>
      <trkpt lat="44.23186" lon="6.60245">
        <ele>2065.3</ele>
        <time>2022-07-14T09:07:23Z</time>
      </trkpt>
      <trkpt lat="44.23192" lon="6.60236">
        <ele>2066.7</ele>
        <time>2022-07-14T09:07:36Z</time>
      </trkpt>
      <trkpt lat="44.23197" lon="6.60225">
        <ele>2068.6</ele>
        <time>2022-07-14T09:07:49Z</time>
      </trkpt>
      <trkpt lat="44.232" lon="6.60213">
        <ele>2070.4</ele>
        <time>2022-07-14T09:08:06Z</time>
      </trkpt>
      <trkpt lat="44.23204" lon="6.60202">
        <ele>2072.2</ele>
        <time>2022-07-14T09:08:18Z</time>
      </trkpt>
      <trkpt lat="44.2321" lon="6.6019">
        <ele>2073.9</ele>
        <time>2022-07-14T09:08:29Z</time>
      </trkpt>
      <trkpt lat="44.23215" lon="6.6018">
        <ele>2075</ele>
        <time>2022-07-14T09:08:41Z</time>
      </trkpt>
      <trkpt lat="44.23219" lon="6.60169">
        <ele>2075.8</ele>
        <time>2022-07-14T09:08:53Z</time>
      </trkpt>
      <trkpt lat="44.23226" lon="6.6016">
        <ele>2076.4</ele>
        <time>2022-07-14T09:09:04Z</time>
      </trkpt>
      <trkpt lat="44.23233" lon="6.60151">
        <ele>2077.1</ele>
        <time>2022-07-14T09:09:14Z</time>
      </trkpt>
      <trkpt lat="44.23238" lon="6.60141">
        <ele>2077.7</ele>
        <time>2022-07-14T09:09:26Z</time>
      </trkpt>
      <trkpt lat="44.2324" lon="6.60128">
        <ele>2079.2</ele>
        <time>2022-07-14T09:09:37Z</time>
      </trkpt>
      <trkpt lat="44.23244" lon="6.60116">
        <ele>2081</ele>
        <time>2022-07-14T09:09:51Z</time>
      </trkpt>
      <trkpt lat="44.23251" lon="6.60107">
        <ele>2082.9</ele>
        <time>2022-07-14T09:10:03Z</time>
      </trkpt>
      <trkpt lat="44.23258" lon="6.60099">
        <ele>2084.7</ele>
        <time>2022-07-14T09:10:13Z</time>
      </trkpt>
      <trkpt lat="44.23266" lon="6.60094">
        <ele>2086</ele>
        <time>2022-07-14T09:10:22Z</time>
      </trkpt>
      <trkpt lat="44.23272" lon="6.60083">
        <ele>2088</ele>
        <time>2022-07-14T09:10:31Z</time>
      </trkpt>
      <trkpt lat="44.23281" lon="6.60079">
        <ele>2089.4</ele>
        <time>2022-07-14T09:10:41Z</time>
      </trkpt>
      <trkpt lat="44.23291" lon="6.6008">
        <ele>2089.3</ele>
        <time>2022-07-14T09:10:51Z</time>
      </trkpt>
      <trkpt lat="44.233" lon="6.6008">
        <ele>2089.3</ele>
        <time>2022-07-14T09:11:02Z</time>
      </trkpt>
      <trkpt lat="44.23307" lon="6.6007">
        <ele>2092.6</ele>
        <time>2022-07-14T09:11:21Z</time>
      </trkpt>
      <trkpt lat="44.23316" lon="6.6007">
        <ele>2092.4</ele>
        <time>2022-07-14T09:11:38Z</time>
      </trkpt>
      <trkpt lat="44.23325" lon="6.60069">
        <ele>2092.3</ele>
        <time>2022-07-14T09:11:58Z</time>
      </trkpt>
      <trkpt lat="44.23333" lon="6.60061">
        <ele>2094.3</ele>
        <time>2022-07-14T09:12:13Z</time>
      </trkpt>
      <trkpt lat="44.23335" lon="6.60048">
        <ele>2098</ele>
        <time>2022-07-14T09:12:28Z</time>
      </trkpt>
      <trkpt lat="44.23335" lon="6.60035">
        <ele>2102.2</ele>
        <time>2022-07-14T09:12:41Z</time>
      </trkpt>
      <trkpt lat="44.23339" lon="6.60024">
        <ele>2104.2</ele>
        <time>2022-07-14T09:13:00Z</time>
      </trkpt>
      <trkpt lat="44.23345" lon="6.60014">
        <ele>2104.9</ele>
        <time>2022-07-14T09:13:22Z</time>
      </trkpt>
      <trkpt lat="44.2335" lon="6.60003">
        <ele>2106.1</ele>
        <time>2022-07-14T09:13:42Z</time>
      </trkpt>
      <trkpt lat="44.23348" lon="6.5999">
        <ele>2110.1</ele>
        <time>2022-07-14T09:14:02Z</time>
      </trkpt>
      <trkpt lat="44.23339" lon="6.59993">
        <ele>2112.3</ele>
        <time>2022-07-14T09:14:22Z</time>
      </trkpt>
      <trkpt lat="44.2333" lon="6.59996">
        <ele>2114.3</ele>
        <time>2022-07-14T09:14:39Z</time>
      </trkpt>
      <trkpt lat="44.23321" lon="6.59999">
        <ele>2115.6</ele>
        <time>2022-07-14T09:14:56Z</time>
      </trkpt>
      <trkpt lat="44.23323" lon="6.59986">
        <ele>2119.6</ele>
        <time>2022-07-14T09:15:19Z</time>
      </trkpt>
      <trkpt lat="44.23326" lon="6.59974">
        <ele>2122.8</ele>
        <time>2022-07-14T09:15:40Z</time>
      </trkpt>
      <trkpt lat="44.2333" lon="6.59963">
        <ele>2125.1</ele>
        <time>2022-07-14T09:15:59Z</time>
      </trkpt>
      <trkpt lat="44.23335" lon="6.59951">
        <ele>2127.3</ele>
        <time>2022-07-14T09:16:20Z</time>
      </trkpt>
      <trkpt lat="44.23341" lon="6.59943">
        <ele>2127.2</ele>
        <time>2022-07-14T09:16:38Z</time>
      </trkpt>
      <trkpt lat="44.23346" lon="6.59931">
        <ele>2128.9</ele>
        <time>2022-07-14T09:16:57Z</time>
      </trkpt>
      <trkpt lat="44.23344" lon="6.59919">
        <ele>2134.7</ele>
        <time>2022-07-14T09:17:59Z</time>
      </trkpt>
      <trkpt lat="44.23335" lon="6.59916">
        <ele>2140.4</ele>
        <time>2022-07-14T09:18:29Z</time>
      </trkpt>
      <trkpt lat="44.23325" lon="6.59916">
        <ele>2144.7</ele>
        <time>2022-07-14T09:18:54Z</time>
      </trkpt>
      <trkpt lat="44.23314" lon="6.59919">
        <ele>2148.7</ele>
        <time>2022-07-14T09:19:21Z</time>
      </trkpt>
      <trkpt lat="44.23321" lon="6.59896">
        <ele>2153.7</ele>
        <time>2022-07-14T09:19:58Z</time>
      </trkpt>
      <trkpt lat="44.23322" lon="6.59883">
        <ele>2157</ele>
        <time>2022-07-14T09:20:13Z</time>
      </trkpt>
      <trkpt lat="44.23327" lon="6.59873">
        <ele>2157.5</ele>
        <time>2022-07-14T09:20:33Z</time>
      </trkpt>
      <trkpt lat="44.2333" lon="6.59861">
        <ele>2159.4</ele>
        <time>2022-07-14T09:20:49Z</time>
      </trkpt>
      <trkpt lat="44.23333" lon="6.59848">
        <ele>2160.8</ele>
        <time>2022-07-14T09:21:04Z</time>
      </trkpt>
      <trkpt lat="44.23331" lon="6.59836">
        <ele>2164.4</ele>
        <time>2022-07-14T09:21:18Z</time>
      </trkpt>
      <trkpt lat="44.23329" lon="6.59823">
        <ele>2167.3</ele>
        <time>2022-07-14T09:21:32Z</time>
      </trkpt>
      <trkpt lat="44.23329" lon="6.5981">
        <ele>2169.8</ele>
        <time>2022-07-14T09:21:47Z</time>
      </trkpt>
      <trkpt lat="44.23324" lon="6.59799">
        <ele>2173.5</ele>
        <time>2022-07-14T09:22:02Z</time>
      </trkpt>
      <trkpt lat="44.23326" lon="6.59786">
        <ele>2175.7</ele>
        <time>2022-07-14T09:22:19Z</time>
      </trkpt>
      <trkpt lat="44.23335" lon="6.59784">
        <ele>2174.3</ele>
        <time>2022-07-14T09:22:32Z</time>
      </trkpt>
      <trkpt lat="44.23343" lon="6.59776">
        <ele>2176.3</ele>
        <time>2022-07-14T09:22:52Z</time>
      </trkpt>
      <trkpt lat="44.23352" lon="6.59775">
        <ele>2176.5</ele>
        <time>2022-07-14T09:23:05Z</time>
      </trkpt>
      <trkpt lat="44.23361" lon="6.59778">
        <ele>2174.9</ele>
        <time>2022-07-14T09:23:41Z</time>
      </trkpt>
      <trkpt lat="44.2337" lon="6.5978">
        <ele>2174</ele>
        <time>2022-07-14T09:23:52Z</time>
      </trkpt>
      <trkpt lat="44.23379" lon="6.59785">
        <ele>2172</ele>
        <time>2022-07-14T09:24:06Z</time>
      </trkpt>
      <trkpt lat="44.23386" lon="6.59777">
        <ele>2175.5</ele>
        <time>2022-07-14T09:24:20Z</time>
      </trkpt>
      <trkpt lat="44.2338" lon="6.59766">
        <ele>2179.6</ele>
        <time>2022-07-14T09:24:40Z</time>
      </trkpt>
      <trkpt lat="44.23373" lon="6.59757">
        <ele>2183</ele>
        <time>2022-07-14T09:25:00Z</time>
      </trkpt>
      <trkpt lat="44.23368" lon="6.59747">
        <ele>2187.2</ele>
        <time>2022-07-14T09:25:17Z</time>
      </trkpt>
      <trkpt lat="44.23363" lon="6.59736">
        <ele>2191.2</ele>
        <time>2022-07-14T09:25:31Z</time>
      </trkpt>
      <trkpt lat="44.23358" lon="6.59724">
        <ele>2194.8</ele>
        <time>2022-07-14T09:25:45Z</time>
      </trkpt>
      <trkpt lat="44.23351" lon="6.59716">
        <ele>2196.7</ele>
        <time>2022-07-14T09:26:00Z</time>
      </trkpt>
      <trkpt lat="44.23345" lon="6.59707">
        <ele>2198.5</ele>
        <time>2022-07-14T09:26:14Z</time>
      </trkpt>
      <trkpt lat="44.23337" lon="6.59701">
        <ele>2199.3</ele>
        <time>2022-07-14T09:26:27Z</time>
      </trkpt>
      <trkpt lat="44.23329" lon="6.59693">
        <ele>2200.9</ele>
        <time>2022-07-14T09:26:42Z</time>
      </trkpt>
      <trkpt lat="44.23323" lon="6.59684">
        <ele>2203.2</ele>
        <time>2022-07-14T09:27:05Z</time>
      </trkpt>
      <trkpt lat="44.23319" lon="6.59673">
        <ele>2206.4</ele>
        <time>2022-07-14T09:27:21Z</time>
      </trkpt>
      <trkpt lat="44.23316" lon="6.5966">
        <ele>2210.2</ele>
        <time>2022-07-14T09:27:37Z</time>
      </trkpt>
      <trkpt lat="44.23308" lon="6.59653">
        <ele>2211.2</ele>
        <time>2022-07-14T09:27:58Z</time>
      </trkpt>
      <trkpt lat="44.23318" lon="6.59652">
        <ele>2213</ele>
        <time>2022-07-14T09:28:24Z</time>
      </trkpt>
      <trkpt lat="44.23328" lon="6.59654">
        <ele>2213.9</ele>
        <time>2022-07-14T09:28:36Z</time>
      </trkpt>
      <trkpt lat="44.23336" lon="6.59657">
        <ele>2214.1</ele>
        <time>2022-07-14T09:28:49Z</time>
      </trkpt>
      <trkpt lat="44.23346" lon="6.59661">
        <ele>2214.3</ele>
        <time>2022-07-14T09:29:00Z</time>
      </trkpt>
      <trkpt lat="44.23355" lon="6.59662">
        <ele>2215.4</ele>
        <time>2022-07-14T09:29:15Z</time>
      </trkpt>
      <trkpt lat="44.23364" lon="6.5966">
        <ele>2217.5</ele>
        <time>2022-07-14T09:29:33Z</time>
      </trkpt>
      <trkpt lat="44.23373" lon="6.59661">
        <ele>2218.3</ele>
        <time>2022-07-14T09:29:52Z</time>
      </trkpt>
      <trkpt lat="44.23382" lon="6.59659">
        <ele>2219.9</ele>
        <time>2022-07-14T09:30:09Z</time>
      </trkpt>
      <trkpt lat="44.2339" lon="6.59652">
        <ele>2222.4</ele>
        <time>2022-07-14T09:30:28Z</time>
      </trkpt>
      <trkpt lat="44.23385" lon="6.59642">
        <ele>2225.7</ele>
        <time>2022-07-14T09:30:47Z</time>
      </trkpt>
      <trkpt lat="44.23377" lon="6.59636">
        <ele>2226.1</ele>
        <time>2022-07-14T09:31:02Z</time>
      </trkpt>
      <trkpt lat="44.23371" lon="6.59625">
        <ele>2226.5</ele>
        <time>2022-07-14T09:31:19Z</time>
      </trkpt>
      <trkpt lat="44.23365" lon="6.59615">
        <ele>2227.9</ele>
        <time>2022-07-14T09:31:35Z</time>
      </trkpt>
      <trkpt lat="44.23357" lon="6.59607">
        <ele>2229.1</ele>
        <time>2022-07-14T09:31:49Z</time>
      </trkpt>
      <trkpt lat="44.23353" lon="6.59595">
        <ele>2230.4</ele>
        <time>2022-07-14T09:32:05Z</time>
      </trkpt>
      <trkpt lat="44.23348" lon="6.59584">
        <ele>2232.8</ele>
        <time>2022-07-14T09:32:21Z</time>
      </trkpt>
      <trkpt lat="44.23339" lon="6.59579">
        <ele>2235</ele>
        <time>2022-07-14T09:32:35Z</time>
      </trkpt>
      <trkpt lat="44.23331" lon="6.59573">
        <ele>2237.5</ele>
        <time>2022-07-14T09:32:50Z</time>
      </trkpt>
      <trkpt lat="44.23324" lon="6.59565">
        <ele>2239.5</ele>
        <time>2022-07-14T09:33:08Z</time>
      </trkpt>
      <trkpt lat="44.23316" lon="6.5956">
        <ele>2241.7</ele>
        <time>2022-07-14T09:33:25Z</time>
      </trkpt>
      <trkpt lat="44.23308" lon="6.59555">
        <ele>2244.8</ele>
        <time>2022-07-14T09:33:45Z</time>
      </trkpt>
      <trkpt lat="44.23299" lon="6.5955">
        <ele>2247</ele>
        <time>2022-07-14T09:34:03Z</time>
      </trkpt>
      <trkpt lat="44.2329" lon="6.59545">
        <ele>2249.5</ele>
        <time>2022-07-14T09:34:19Z</time>
      </trkpt>
      <trkpt lat="44.23281" lon="6.59542">
        <ele>2251.8</ele>
        <time>2022-07-14T09:34:37Z</time>
      </trkpt>
      <trkpt lat="44.23272" lon="6.59538">
        <ele>2254.2</ele>
        <time>2022-07-14T09:34:54Z</time>
      </trkpt>
      <trkpt lat="44.23264" lon="6.59532">
        <ele>2256.7</ele>
        <time>2022-07-14T09:35:09Z</time>
      </trkpt>
      <trkpt lat="44.23255" lon="6.59528">
        <ele>2258.8</ele>
        <time>2022-07-14T09:35:23Z</time>
      </trkpt>
      <trkpt lat="44.23248" lon="6.5952">
        <ele>2262.1</ele>
        <time>2022-07-14T09:35:39Z</time>
      </trkpt>
      <trkpt lat="44.23239" lon="6.59518">
        <ele>2263.5</ele>
        <time>2022-07-14T09:35:51Z</time>
      </trkpt>
      <trkpt lat="44.2323" lon="6.59515">
        <ele>2265.4</ele>
        <time>2022-07-14T09:36:06Z</time>
      </trkpt>
      <trkpt lat="44.23221" lon="6.59519">
        <ele>2264.7</ele>
        <time>2022-07-14T09:36:23Z</time>
      </trkpt>
      <trkpt lat="44.23211" lon="6.59517">
        <ele>2267.5</ele>
        <time>2022-07-14T09:36:39Z</time>
      </trkpt>
      <trkpt lat="44.23202" lon="6.59516">
        <ele>2270</ele>
        <time>2022-07-14T09:36:57Z</time>
      </trkpt>
      <trkpt lat="44.23193" lon="6.59514">
        <ele>2272.8</ele>
        <time>2022-07-14T09:37:18Z</time>
      </trkpt>
      <trkpt lat="44.23196" lon="6.59501">
        <ele>2276.3</ele>
        <time>2022-07-14T09:37:33Z</time>
      </trkpt>
      <trkpt lat="44.23203" lon="6.59493">
        <ele>2277.5</ele>
        <time>2022-07-14T09:37:55Z</time>
      </trkpt>
      <trkpt lat="44.23211" lon="6.59486">
        <ele>2277.9</ele>
        <time>2022-07-14T09:38:10Z</time>
      </trkpt>
      <trkpt lat="44.23204" lon="6.59478">
        <ele>2281.8</ele>
        <time>2022-07-14T09:38:45Z</time>
      </trkpt>
      <trkpt lat="44.23194" lon="6.59477">
        <ele>2284.6</ele>
        <time>2022-07-14T09:39:00Z</time>
      </trkpt>
      <trkpt lat="44.23185" lon="6.59476">
        <ele>2286.8</ele>
        <time>2022-07-14T09:39:17Z</time>
      </trkpt>
      <trkpt lat="44.23175" lon="6.59478">
        <ele>2288.4</ele>
        <time>2022-07-14T09:39:33Z</time>
      </trkpt>
      <trkpt lat="44.23166" lon="6.59477">
        <ele>2290.8</ele>
        <time>2022-07-14T09:39:52Z</time>
      </trkpt>
      <trkpt lat="44.23157" lon="6.59474">
        <ele>2294</ele>
        <time>2022-07-14T09:40:11Z</time>
      </trkpt>
      <trkpt lat="44.23148" lon="6.59474">
        <ele>2296.7</ele>
        <time>2022-07-14T09:40:30Z</time>
      </trkpt>
      <trkpt lat="44.23139" lon="6.59471">
        <ele>2300.4</ele>
        <time>2022-07-14T09:40:54Z</time>
      </trkpt>
      <trkpt lat="44.2313" lon="6.59471">
        <ele>2303.2</ele>
        <time>2022-07-14T09:41:15Z</time>
      </trkpt>
      <trkpt lat="44.23121" lon="6.59471">
        <ele>2305.7</ele>
        <time>2022-07-14T09:41:33Z</time>
      </trkpt>
      <trkpt lat="44.23117" lon="6.59459">
        <ele>2311.3</ele>
        <time>2022-07-14T09:45:46Z</time>
      </trkpt>
      <trkpt lat="44.2311" lon="6.59452">
        <ele>2316.6</ele>
        <time>2022-07-14T09:46:38Z</time>
      </trkpt>
      <trkpt lat="44.23108" lon="6.59439">
        <ele>2321.3</ele>
        <time>2022-07-14T09:47:33Z</time>
      </trkpt>
      <trkpt lat="44.23099" lon="6.59436">
        <ele>2325.4</ele>
        <time>2022-07-14T09:47:57Z</time>
      </trkpt>
      <trkpt lat="44.2309" lon="6.59436">
        <ele>2328.7</ele>
        <time>2022-07-14T09:48:15Z</time>
      </trkpt>
      <trkpt lat="44.2308" lon="6.59437">
        <ele>2331.7</ele>
        <time>2022-07-14T09:48:35Z</time>
      </trkpt>
      <trkpt lat="44.23071" lon="6.59438">
        <ele>2334.4</ele>
        <time>2022-07-14T09:48:52Z</time>
      </trkpt>
      <trkpt lat="44.23062" lon="6.59438">
        <ele>2337.6</ele>
        <time>2022-07-14T09:49:15Z</time>
      </trkpt>
      <trkpt lat="44.23053" lon="6.59442">
        <ele>2338.9</ele>
        <time>2022-07-14T09:49:31Z</time>
      </trkpt>
      <trkpt lat="44.23044" lon="6.59444">
        <ele>2341.5</ele>
        <time>2022-07-14T09:49:52Z</time>
      </trkpt>
      <trkpt lat="44.23035" lon="6.5944">
        <ele>2345.9</ele>
        <time>2022-07-14T09:50:26Z</time>
      </trkpt>
      <trkpt lat="44.23026" lon="6.59442">
        <ele>2348.3</ele>
        <time>2022-07-14T09:50:45Z</time>
      </trkpt>
      <trkpt lat="44.23017" lon="6.59442">
        <ele>2351.4</ele>
        <time>2022-07-14T09:51:08Z</time>
      </trkpt>
      <trkpt lat="44.23008" lon="6.59441">
        <ele>2354.5</ele>
        <time>2022-07-14T09:51:34Z</time>
      </trkpt>
      <trkpt lat="44.22999" lon="6.59445">
        <ele>2356.1</ele>
        <time>2022-07-14T09:52:09Z</time>
      </trkpt>
      <trkpt lat="44.2299" lon="6.59448">
        <ele>2357.4</ele>
        <time>2022-07-14T09:52:27Z</time>
      </trkpt>
      <trkpt lat="44.22981" lon="6.59449">
        <ele>2359.3</ele>
        <time>2022-07-14T09:52:51Z</time>
      </trkpt>
      <trkpt lat="44.22972" lon="6.5945">
        <ele>2360.9</ele>
        <time>2022-07-14T09:53:08Z</time>
      </trkpt>
      <trkpt lat="44.22962" lon="6.59454">
        <ele>2360.3</ele>
        <time>2022-07-14T09:55:14Z</time>
      </trkpt>
      <trkpt lat="44.22954" lon="6.59461">
        <ele>2360.1</ele>
        <time>2022-07-14T09:55:25Z</time>
      </trkpt>
      <trkpt lat="44.22945" lon="6.59466">
        <ele>2360.7</ele>
        <time>2022-07-14T09:55:34Z</time>
      </trkpt>
      <trkpt lat="44.22937" lon="6.59474">
        <ele>2360.3</ele>
        <time>2022-07-14T09:55:43Z</time>
      </trkpt>
      <trkpt lat="44.22928" lon="6.59478">
        <ele>2359.4</ele>
        <time>2022-07-14T09:55:51Z</time>
      </trkpt>
      <trkpt lat="44.2292" lon="6.59486">
        <ele>2358.6</ele>
        <time>2022-07-14T09:56:01Z</time>
      </trkpt>
      <trkpt lat="44.22912" lon="6.59495">
        <ele>2357</ele>
        <time>2022-07-14T09:56:12Z</time>
      </trkpt>
      <trkpt lat="44.22904" lon="6.5949">
        <ele>2354.7</ele>
        <time>2022-07-14T09:56:25Z</time>
      </trkpt>
      <trkpt lat="44.22894" lon="6.59487">
        <ele>2352.3</ele>
        <time>2022-07-14T09:56:35Z</time>
      </trkpt>
      <trkpt lat="44.22885" lon="6.59485">
        <ele>2350</ele>
        <time>2022-07-14T09:56:45Z</time>
      </trkpt>
      <trkpt lat="44.22875" lon="6.59481">
        <ele>2348.3</ele>
        <time>2022-07-14T09:56:56Z</time>
      </trkpt>
      <trkpt lat="44.22866" lon="6.59477">
        <ele>2347</ele>
        <time>2022-07-14T09:57:06Z</time>
      </trkpt>
      <trkpt lat="44.22857" lon="6.59474">
        <ele>2346.1</ele>
        <time>2022-07-14T09:57:16Z</time>
      </trkpt>
      <trkpt lat="44.22847" lon="6.59473">
        <ele>2345.2</ele>
        <time>2022-07-14T09:57:26Z</time>
      </trkpt>
      <trkpt lat="44.22837" lon="6.59471">
        <ele>2344.2</ele>
        <time>2022-07-14T09:57:36Z</time>
      </trkpt>
      <trkpt lat="44.22829" lon="6.59465">
        <ele>2341.5</ele>
        <time>2022-07-14T09:57:47Z</time>
      </trkpt>
      <trkpt lat="44.2282" lon="6.5946">
        <ele>2338.7</ele>
        <time>2022-07-14T09:57:57Z</time>
      </trkpt>
      <trkpt lat="44.22812" lon="6.59454">
        <ele>2337</ele>
        <time>2022-07-14T09:58:07Z</time>
      </trkpt>
      <trkpt lat="44.22804" lon="6.59448">
        <ele>2336.7</ele>
        <time>2022-07-14T09:58:16Z</time>
      </trkpt>
      <trkpt lat="44.22795" lon="6.59451">
        <ele>2336.2</ele>
        <time>2022-07-14T09:58:26Z</time>
      </trkpt>
      <trkpt lat="44.22786" lon="6.59454">
        <ele>2335.7</ele>
        <time>2022-07-14T09:58:45Z</time>
      </trkpt>
      <trkpt lat="44.22777" lon="6.59455">
        <ele>2335.8</ele>
        <time>2022-07-14T09:58:56Z</time>
      </trkpt>
      <trkpt lat="44.22767" lon="6.59453">
        <ele>2338</ele>
        <time>2022-07-14T09:59:08Z</time>
      </trkpt>
      <trkpt lat="44.22758" lon="6.5945">
        <ele>2340.1</ele>
        <time>2022-07-14T09:59:20Z</time>
      </trkpt>
      <trkpt lat="44.22749" lon="6.59448">
        <ele>2342.1</ele>
        <time>2022-07-14T09:59:31Z</time>
      </trkpt>
      <trkpt lat="44.2274" lon="6.59446">
        <ele>2344.2</ele>
        <time>2022-07-14T09:59:41Z</time>
      </trkpt>
      <trkpt lat="44.22731" lon="6.59443">
        <ele>2345.6</ele>
        <time>2022-07-14T09:59:50Z</time>
      </trkpt>
      <trkpt lat="44.22721" lon="6.59439">
        <ele>2346.5</ele>
        <time>2022-07-14T10:00:00Z</time>
      </trkpt>
      <trkpt lat="44.22712" lon="6.59435">
        <ele>2347.2</ele>
        <time>2022-07-14T10:00:11Z</time>
      </trkpt>
      <trkpt lat="44.22703" lon="6.59431">
        <ele>2348.1</ele>
        <time>2022-07-14T10:00:19Z</time>
      </trkpt>
      <trkpt lat="44.22695" lon="6.59424">
        <ele>2347.6</ele>
        <time>2022-07-14T10:00:30Z</time>
      </trkpt>
      <trkpt lat="44.22687" lon="6.59419">
        <ele>2347.4</ele>
        <time>2022-07-14T10:00:38Z</time>
      </trkpt>
      <trkpt lat="44.22678" lon="6.59415">
        <ele>2347.3</ele>
        <time>2022-07-14T10:00:48Z</time>
      </trkpt>
      <trkpt lat="44.22669" lon="6.5941">
        <ele>2347</ele>
        <time>2022-07-14T10:00:57Z</time>
      </trkpt>
      <trkpt lat="44.2266" lon="6.59408">
        <ele>2347.3</ele>
        <time>2022-07-14T10:01:06Z</time>
      </trkpt>
      <trkpt lat="44.22651" lon="6.59404">
        <ele>2347.3</ele>
        <time>2022-07-14T10:01:15Z</time>
      </trkpt>
      <trkpt lat="44.22642" lon="6.59402">
        <ele>2347.7</ele>
        <time>2022-07-14T10:01:24Z</time>
      </trkpt>
      <trkpt lat="44.22633" lon="6.59401">
        <ele>2348.6</ele>
        <time>2022-07-14T10:01:34Z</time>
      </trkpt>
      <trkpt lat="44.22624" lon="6.59401">
        <ele>2349.6</ele>
        <time>2022-07-14T10:01:44Z</time>
      </trkpt>
      <trkpt lat="44.22614" lon="6.59402">
        <ele>2350.9</ele>
        <time>2022-07-14T10:01:53Z</time>
      </trkpt>
      <trkpt lat="44.22605" lon="6.59402">
        <ele>2351.7</ele>
        <time>2022-07-14T10:02:01Z</time>
      </trkpt>
      <trkpt lat="44.22595" lon="6.59402">
        <ele>2352.2</ele>
        <time>2022-07-14T10:02:10Z</time>
      </trkpt>
      <trkpt lat="44.22585" lon="6.59405">
        <ele>2353.7</ele>
        <time>2022-07-14T10:02:18Z</time>
      </trkpt>
      <trkpt lat="44.22576" lon="6.59405">
        <ele>2354.1</ele>
        <time>2022-07-14T10:02:27Z</time>
      </trkpt>
      <trkpt lat="44.22566" lon="6.59406">
        <ele>2354.4</ele>
        <time>2022-07-14T10:02:36Z</time>
      </trkpt>
      <trkpt lat="44.22557" lon="6.59407">
        <ele>2354.6</ele>
        <time>2022-07-14T10:02:46Z</time>
      </trkpt>
      <trkpt lat="44.22547" lon="6.59408">
        <ele>2355.3</ele>
        <time>2022-07-14T10:02:55Z</time>
      </trkpt>
      <trkpt lat="44.22538" lon="6.5941">
        <ele>2356.2</ele>
        <time>2022-07-14T10:03:03Z</time>
      </trkpt>
      <trkpt lat="44.22528" lon="6.5941">
        <ele>2356.2</ele>
        <time>2022-07-14T10:03:13Z</time>
      </trkpt>
      <trkpt lat="44.22518" lon="6.59411">
        <ele>2355.6</ele>
        <time>2022-07-14T10:03:22Z</time>
      </trkpt>
      <trkpt lat="44.22509" lon="6.59414">
        <ele>2355.8</ele>
        <time>2022-07-14T10:03:29Z</time>
      </trkpt>
      <trkpt lat="44.225" lon="6.59417">
        <ele>2356.2</ele>
        <time>2022-07-14T10:03:39Z</time>
      </trkpt>
      <trkpt lat="44.22492" lon="6.59422">
        <ele>2357.2</ele>
        <time>2022-07-14T10:03:49Z</time>
      </trkpt>
      <trkpt lat="44.22483" lon="6.59428">
        <ele>2358.3</ele>
        <time>2022-07-14T10:03:59Z</time>
      </trkpt>
      <trkpt lat="44.22475" lon="6.59435">
        <ele>2359.3</ele>
        <time>2022-07-14T10:04:09Z</time>
      </trkpt>
      <trkpt lat="44.22467" lon="6.59441">
        <ele>2359.5</ele>
        <time>2022-07-14T10:04:22Z</time>
      </trkpt>
      <trkpt lat="44.22459" lon="6.59449">
        <ele>2360.4</ele>
        <time>2022-07-14T10:04:33Z</time>
      </trkpt>
      <trkpt lat="44.22451" lon="6.59457">
        <ele>2361.9</ele>
        <time>2022-07-14T10:04:42Z</time>
      </trkpt>
      <trkpt lat="44.22444" lon="6.59465">
        <ele>2362.8</ele>
        <time>2022-07-14T10:04:52Z</time>
      </trkpt>
      <trkpt lat="44.22436" lon="6.59472">
        <ele>2362.9</ele>
        <time>2022-07-14T10:05:01Z</time>
      </trkpt>
      <trkpt lat="44.22429" lon="6.59479">
        <ele>2362.8</ele>
        <time>2022-07-14T10:05:10Z</time>
      </trkpt>
      <trkpt lat="44.2242" lon="6.59488">
        <ele>2363</ele>
        <time>2022-07-14T10:05:20Z</time>
      </trkpt>
      <trkpt lat="44.22413" lon="6.59496">
        <ele>2363</ele>
        <time>2022-07-14T10:05:37Z</time>
      </trkpt>
      <trkpt lat="44.22406" lon="6.59506">
        <ele>2363.2</ele>
        <time>2022-07-14T10:05:48Z</time>
      </trkpt>
      <trkpt lat="44.224" lon="6.59515">
        <ele>2363.2</ele>
        <time>2022-07-14T10:05:57Z</time>
      </trkpt>
      <trkpt lat="44.22393" lon="6.59526">
        <ele>2364</ele>
        <time>2022-07-14T10:06:07Z</time>
      </trkpt>
      <trkpt lat="44.22385" lon="6.59532">
        <ele>2362.8</ele>
        <time>2022-07-14T10:06:16Z</time>
      </trkpt>
      <trkpt lat="44.22379" lon="6.59543">
        <ele>2363.2</ele>
        <time>2022-07-14T10:06:25Z</time>
      </trkpt>
      <trkpt lat="44.22372" lon="6.59552">
        <ele>2363.6</ele>
        <time>2022-07-14T10:06:35Z</time>
      </trkpt>
      <trkpt lat="44.22367" lon="6.59564">
        <ele>2365.5</ele>
        <time>2022-07-14T10:06:45Z</time>
      </trkpt>
      <trkpt lat="44.2236" lon="6.59575">
        <ele>2366.4</ele>
        <time>2022-07-14T10:06:55Z</time>
      </trkpt>
      <trkpt lat="44.22354" lon="6.59585">
        <ele>2367.4</ele>
        <time>2022-07-14T10:07:03Z</time>
      </trkpt>
      <trkpt lat="44.22347" lon="6.59594">
        <ele>2366.9</ele>
        <time>2022-07-14T10:07:14Z</time>
      </trkpt>
      <trkpt lat="44.2234" lon="6.59604">
        <ele>2367.2</ele>
        <time>2022-07-14T10:07:24Z</time>
      </trkpt>
      <trkpt lat="44.22333" lon="6.59613">
        <ele>2366.9</ele>
        <time>2022-07-14T10:07:32Z</time>
      </trkpt>
      <trkpt lat="44.22327" lon="6.59621">
        <ele>2364.8</ele>
        <time>2022-07-14T10:07:41Z</time>
      </trkpt>
      <trkpt lat="44.22319" lon="6.59628">
        <ele>2363.2</ele>
        <time>2022-07-14T10:07:51Z</time>
      </trkpt>
      <trkpt lat="44.22309" lon="6.59631">
        <ele>2361.7</ele>
        <time>2022-07-14T10:08:02Z</time>
      </trkpt>
      <trkpt lat="44.223" lon="6.59635">
        <ele>2361.1</ele>
        <time>2022-07-14T10:08:11Z</time>
      </trkpt>
      <trkpt lat="44.22293" lon="6.59643">
        <ele>2361.6</ele>
        <time>2022-07-14T10:08:20Z</time>
      </trkpt>
      <trkpt lat="44.22284" lon="6.59647">
        <ele>2361.4</ele>
        <time>2022-07-14T10:08:31Z</time>
      </trkpt>
      <trkpt lat="44.22277" lon="6.59656">
        <ele>2361.6</ele>
        <time>2022-07-14T10:08:40Z</time>
      </trkpt>
      <trkpt lat="44.22268" lon="6.59662">
        <ele>2362.1</ele>
        <time>2022-07-14T10:08:51Z</time>
      </trkpt>
      <trkpt lat="44.2226" lon="6.59667">
        <ele>2363.2</ele>
        <time>2022-07-14T10:09:01Z</time>
      </trkpt>
      <trkpt lat="44.22251" lon="6.59672">
        <ele>2362.9</ele>
        <time>2022-07-14T10:09:09Z</time>
      </trkpt>
      <trkpt lat="44.22242" lon="6.59677">
        <ele>2362.4</ele>
        <time>2022-07-14T10:09:17Z</time>
      </trkpt>
      <trkpt lat="44.22233" lon="6.59681">
        <ele>2362.4</ele>
        <time>2022-07-14T10:09:26Z</time>
      </trkpt>
      <trkpt lat="44.22225" lon="6.59689">
        <ele>2363.2</ele>
        <time>2022-07-14T10:09:35Z</time>
      </trkpt>
      <trkpt lat="44.22217" lon="6.59695">
        <ele>2364.2</ele>
        <time>2022-07-14T10:09:43Z</time>
      </trkpt>
      <trkpt lat="44.22208" lon="6.597">
        <ele>2363.9</ele>
        <time>2022-07-14T10:09:56Z</time>
      </trkpt>
      <trkpt lat="44.222" lon="6.59704">
        <ele>2364.4</ele>
        <time>2022-07-14T10:10:07Z</time>
      </trkpt>
      <trkpt lat="44.22191" lon="6.59708">
        <ele>2364.8</ele>
        <time>2022-07-14T10:10:16Z</time>
      </trkpt>
      <trkpt lat="44.22182" lon="6.59711">
        <ele>2364.3</ele>
        <time>2022-07-14T10:10:26Z</time>
      </trkpt>
      <trkpt lat="44.22173" lon="6.59713">
        <ele>2363.9</ele>
        <time>2022-07-14T10:10:36Z</time>
      </trkpt>
      <trkpt lat="44.22164" lon="6.59713">
        <ele>2363.4</ele>
        <time>2022-07-14T10:10:46Z</time>
      </trkpt>
      <trkpt lat="44.22154" lon="6.59712">
        <ele>2362.6</ele>
        <time>2022-07-14T10:10:55Z</time>
      </trkpt>
      <trkpt lat="44.22144" lon="6.59712">
        <ele>2361.8</ele>
        <time>2022-07-14T10:11:04Z</time>
      </trkpt>
      <trkpt lat="44.22135" lon="6.59706">
        <ele>2361.4</ele>
        <time>2022-07-14T10:11:13Z</time>
      </trkpt>
      <trkpt lat="44.22126" lon="6.59703">
        <ele>2361.4</ele>
        <time>2022-07-14T10:11:22Z</time>
      </trkpt>
      <trkpt lat="44.22117" lon="6.59701">
        <ele>2361.7</ele>
        <time>2022-07-14T10:11:32Z</time>
      </trkpt>
      <trkpt lat="44.22108" lon="6.59695">
        <ele>2363</ele>
        <time>2022-07-14T10:11:50Z</time>
      </trkpt>
      <trkpt lat="44.22099" lon="6.59692">
        <ele>2363.4</ele>
        <time>2022-07-14T10:12:02Z</time>
      </trkpt>
      <trkpt lat="44.22089" lon="6.59692">
        <ele>2364.4</ele>
        <time>2022-07-14T10:12:14Z</time>
      </trkpt>
      <trkpt lat="44.2208" lon="6.59694">
        <ele>2365.2</ele>
        <time>2022-07-14T10:12:24Z</time>
      </trkpt>
      <trkpt lat="44.2207" lon="6.59697">
        <ele>2364.6</ele>
        <time>2022-07-14T10:12:33Z</time>
      </trkpt>
      <trkpt lat="44.22062" lon="6.59701">
        <ele>2363.5</ele>
        <time>2022-07-14T10:12:48Z</time>
      </trkpt>
      <trkpt lat="44.22053" lon="6.59707">
        <ele>2361.4</ele>
        <time>2022-07-14T10:13:09Z</time>
      </trkpt>
      <trkpt lat="44.22044" lon="6.59709">
        <ele>2360</ele>
        <time>2022-07-14T10:42:34Z</time>
      </trkpt>
      <trkpt lat="44.22048" lon="6.59721">
        <ele>2355.3</ele>
        <time>2022-07-14T10:52:17Z</time>
      </trkpt>
      <trkpt lat="44.22056" lon="6.59727">
        <ele>2353.5</ele>
        <time>2022-07-14T10:53:50Z</time>
      </trkpt>
      <trkpt lat="44.22065" lon="6.59729">
        <ele>2352.5</ele>
        <time>2022-07-14T10:54:07Z</time>
      </trkpt>
      <trkpt lat="44.22074" lon="6.59734">
        <ele>2350.2</ele>
        <time>2022-07-14T10:54:22Z</time>
      </trkpt>
      <trkpt lat="44.22066" lon="6.5974">
        <ele>2347.6</ele>
        <time>2022-07-14T10:55:06Z</time>
      </trkpt>
      <trkpt lat="44.22058" lon="6.59747">
        <ele>2343.8</ele>
        <time>2022-07-14T10:55:54Z</time>
      </trkpt>
      <trkpt lat="44.22049" lon="6.59748">
        <ele>2342.5</ele>
        <time>2022-07-14T10:56:07Z</time>
      </trkpt>
      <trkpt lat="44.2204" lon="6.59751">
        <ele>2339.9</ele>
        <time>2022-07-14T10:56:26Z</time>
      </trkpt>
      <trkpt lat="44.22031" lon="6.59748">
        <ele>2340.5</ele>
        <time>2022-07-14T10:56:47Z</time>
      </trkpt>
      <trkpt lat="44.22028" lon="6.5976">
        <ele>2335.9</ele>
        <time>2022-07-14T10:57:46Z</time>
      </trkpt>
      <trkpt lat="44.2202" lon="6.59765">
        <ele>2334.8</ele>
        <time>2022-07-14T10:58:07Z</time>
      </trkpt>
      <trkpt lat="44.22015" lon="6.59776">
        <ele>2332.7</ele>
        <time>2022-07-14T10:58:21Z</time>
      </trkpt>
      <trkpt lat="44.2201" lon="6.59787">
        <ele>2331.4</ele>
        <time>2022-07-14T10:58:31Z</time>
      </trkpt>
      <trkpt lat="44.22007" lon="6.59799">
        <ele>2329.6</ele>
        <time>2022-07-14T10:58:41Z</time>
      </trkpt>
      <trkpt lat="44.2201" lon="6.59812">
        <ele>2326.8</ele>
        <time>2022-07-14T10:58:56Z</time>
      </trkpt>
      <trkpt lat="44.22009" lon="6.59825">
        <ele>2325</ele>
        <time>2022-07-14T10:59:06Z</time>
      </trkpt>
      <trkpt lat="44.22007" lon="6.59839">
        <ele>2323.1</ele>
        <time>2022-07-14T10:59:16Z</time>
      </trkpt>
      <trkpt lat="44.22011" lon="6.59851">
        <ele>2320.1</ele>
        <time>2022-07-14T10:59:27Z</time>
      </trkpt>
      <trkpt lat="44.22012" lon="6.59864">
        <ele>2317.4</ele>
        <time>2022-07-14T10:59:39Z</time>
      </trkpt>
      <trkpt lat="44.22013" lon="6.59876">
        <ele>2313.8</ele>
        <time>2022-07-14T10:59:52Z</time>
      </trkpt>
      <trkpt lat="44.22008" lon="6.59887">
        <ele>2312</ele>
        <time>2022-07-14T11:00:03Z</time>
      </trkpt>
      <trkpt lat="44.22001" lon="6.59896">
        <ele>2311.2</ele>
        <time>2022-07-14T11:00:17Z</time>
      </trkpt>
      <trkpt lat="44.21991" lon="6.599">
        <ele>2310.3</ele>
        <time>2022-07-14T11:00:32Z</time>
      </trkpt>
      <trkpt lat="44.21982" lon="6.59905">
        <ele>2309</ele>
        <time>2022-07-14T11:00:41Z</time>
      </trkpt>
      <trkpt lat="44.21974" lon="6.59909">
        <ele>2307.8</ele>
        <time>2022-07-14T11:00:50Z</time>
      </trkpt>
      <trkpt lat="44.21965" lon="6.59913">
        <ele>2307</ele>
        <time>2022-07-14T11:00:59Z</time>
      </trkpt>
      <trkpt lat="44.21956" lon="6.59917">
        <ele>2305.9</ele>
        <time>2022-07-14T11:01:07Z</time>
      </trkpt>
      <trkpt lat="44.21949" lon="6.59926">
        <ele>2304.2</ele>
        <time>2022-07-14T11:01:15Z</time>
      </trkpt>
      <trkpt lat="44.21942" lon="6.59936">
        <ele>2302.7</ele>
        <time>2022-07-14T11:01:24Z</time>
      </trkpt>
      <trkpt lat="44.21936" lon="6.59947">
        <ele>2301.2</ele>
        <time>2022-07-14T11:01:33Z</time>
      </trkpt>
      <trkpt lat="44.21931" lon="6.59958">
        <ele>2298.9</ele>
        <time>2022-07-14T11:01:44Z</time>
      </trkpt>
      <trkpt lat="44.21923" lon="6.59965">
        <ele>2297.7</ele>
        <time>2022-07-14T11:02:03Z</time>
      </trkpt>
      <trkpt lat="44.21917" lon="6.59975">
        <ele>2295.7</ele>
        <time>2022-07-14T11:02:16Z</time>
      </trkpt>
      <trkpt lat="44.21913" lon="6.59986">
        <ele>2295.3</ele>
        <time>2022-07-14T11:02:26Z</time>
      </trkpt>
      <trkpt lat="44.2191" lon="6.59999">
        <ele>2294.6</ele>
        <time>2022-07-14T11:02:37Z</time>
      </trkpt>
      <trkpt lat="44.21908" lon="6.60012">
        <ele>2294</ele>
        <time>2022-07-14T11:02:47Z</time>
      </trkpt>
      <trkpt lat="44.21908" lon="6.60026">
        <ele>2293.2</ele>
        <time>2022-07-14T11:02:58Z</time>
      </trkpt>
      <trkpt lat="44.21906" lon="6.60039">
        <ele>2292.1</ele>
        <time>2022-07-14T11:03:08Z</time>
      </trkpt>
      <trkpt lat="44.21915" lon="6.60038">
        <ele>2289.7</ele>
        <time>2022-07-14T11:03:25Z</time>
      </trkpt>
      <trkpt lat="44.21921" lon="6.60047">
        <ele>2286.2</ele>
        <time>2022-07-14T11:03:44Z</time>
      </trkpt>
      <trkpt lat="44.21925" lon="6.60059">
        <ele>2283</ele>
        <time>2022-07-14T11:04:00Z</time>
      </trkpt>
      <trkpt lat="44.21931" lon="6.60069">
        <ele>2279.6</ele>
        <time>2022-07-14T11:04:20Z</time>
      </trkpt>
      <trkpt lat="44.21939" lon="6.60077">
        <ele>2276.4</ele>
        <time>2022-07-14T11:04:39Z</time>
      </trkpt>
      <trkpt lat="44.21948" lon="6.60076">
        <ele>2274.3</ele>
        <time>2022-07-14T11:04:48Z</time>
      </trkpt>
      <trkpt lat="44.21957" lon="6.60071">
        <ele>2273</ele>
        <time>2022-07-14T11:04:57Z</time>
      </trkpt>
      <trkpt lat="44.21967" lon="6.60069">
        <ele>2271.2</ele>
        <time>2022-07-14T11:05:05Z</time>
      </trkpt>
      <trkpt lat="44.21977" lon="6.60068">
        <ele>2269.1</ele>
        <time>2022-07-14T11:05:14Z</time>
      </trkpt>
      <trkpt lat="44.21985" lon="6.60072">
        <ele>2266.7</ele>
        <time>2022-07-14T11:05:24Z</time>
      </trkpt>
      <trkpt lat="44.21995" lon="6.60073">
        <ele>2264.4</ele>
        <time>2022-07-14T11:05:35Z</time>
      </trkpt>
      <trkpt lat="44.22004" lon="6.60075">
        <ele>2261.9</ele>
        <time>2022-07-14T11:05:45Z</time>
      </trkpt>
      <trkpt lat="44.22012" lon="6.60071">
        <ele>2260.2</ele>
        <time>2022-07-14T11:05:55Z</time>
      </trkpt>
      <trkpt lat="44.2202" lon="6.60063">
        <ele>2259</ele>
        <time>2022-07-14T11:06:07Z</time>
      </trkpt>
      <trkpt lat="44.22028" lon="6.60057">
        <ele>2257.7</ele>
        <time>2022-07-14T11:06:17Z</time>
      </trkpt>
      <trkpt lat="44.22037" lon="6.60054">
        <ele>2257.4</ele>
        <time>2022-07-14T11:06:23Z</time>
      </trkpt>
      <trkpt lat="44.22046" lon="6.60053">
        <ele>2256.3</ele>
        <time>2022-07-14T11:06:30Z</time>
      </trkpt>
      <trkpt lat="44.22053" lon="6.60061">
        <ele>2253.2</ele>
        <time>2022-07-14T11:06:43Z</time>
      </trkpt>
      <trkpt lat="44.2206" lon="6.6007">
        <ele>2250.2</ele>
        <time>2022-07-14T11:06:56Z</time>
      </trkpt>
      <trkpt lat="44.22066" lon="6.60081">
        <ele>2247.2</ele>
        <time>2022-07-14T11:07:07Z</time>
      </trkpt>
      <trkpt lat="44.22069" lon="6.60092">
        <ele>2244.3</ele>
        <time>2022-07-14T11:07:17Z</time>
      </trkpt>
      <trkpt lat="44.22071" lon="6.60105">
        <ele>2241.5</ele>
        <time>2022-07-14T11:07:27Z</time>
      </trkpt>
      <trkpt lat="44.22076" lon="6.60116">
        <ele>2238.9</ele>
        <time>2022-07-14T11:07:39Z</time>
      </trkpt>
      <trkpt lat="44.22076" lon="6.60128">
        <ele>2237.7</ele>
        <time>2022-07-14T11:07:50Z</time>
      </trkpt>
      <trkpt lat="44.22076" lon="6.60141">
        <ele>2236.6</ele>
        <time>2022-07-14T11:08:01Z</time>
      </trkpt>
      <trkpt lat="44.22081" lon="6.60153">
        <ele>2235.2</ele>
        <time>2022-07-14T11:08:11Z</time>
      </trkpt>
      <trkpt lat="44.22086" lon="6.60164">
        <ele>2233.4</ele>
        <time>2022-07-14T11:08:20Z</time>
      </trkpt>
      <trkpt lat="44.22089" lon="6.60177">
        <ele>2231</ele>
        <time>2022-07-14T11:08:30Z</time>
      </trkpt>
      <trkpt lat="44.22091" lon="6.6019">
        <ele>2228.7</ele>
        <time>2022-07-14T11:08:43Z</time>
      </trkpt>
      <trkpt lat="44.22092" lon="6.60203">
        <ele>2226.8</ele>
        <time>2022-07-14T11:08:54Z</time>
      </trkpt>
      <trkpt lat="44.22094" lon="6.60216">
        <ele>2224.5</ele>
        <time>2022-07-14T11:09:05Z</time>
      </trkpt>
      <trkpt lat="44.22095" lon="6.60229">
        <ele>2222.3</ele>
        <time>2022-07-14T11:09:15Z</time>
      </trkpt>
      <trkpt lat="44.22096" lon="6.60242">
        <ele>2220</ele>
        <time>2022-07-14T11:09:25Z</time>
      </trkpt>
      <trkpt lat="44.22102" lon="6.60252">
        <ele>2217.6</ele>
        <time>2022-07-14T11:09:36Z</time>
      </trkpt>
      <trkpt lat="44.22098" lon="6.60265">
        <ele>2216.1</ele>
        <time>2022-07-14T11:09:46Z</time>
      </trkpt>
      <trkpt lat="44.22089" lon="6.60269">
        <ele>2216.1</ele>
        <time>2022-07-14T11:09:57Z</time>
      </trkpt>
      <trkpt lat="44.22079" lon="6.6027">
        <ele>2216.3</ele>
        <time>2022-07-14T11:10:07Z</time>
      </trkpt>
      <trkpt lat="44.22071" lon="6.60277">
        <ele>2214.7</ele>
        <time>2022-07-14T11:10:18Z</time>
      </trkpt>
      <trkpt lat="44.22079" lon="6.60284">
        <ele>2213.4</ele>
        <time>2022-07-14T11:10:29Z</time>
      </trkpt>
      <trkpt lat="44.22089" lon="6.60289">
        <ele>2212.2</ele>
        <time>2022-07-14T11:10:39Z</time>
      </trkpt>
      <trkpt lat="44.22095" lon="6.60298">
        <ele>2209.8</ele>
        <time>2022-07-14T11:10:50Z</time>
      </trkpt>
      <trkpt lat="44.22089" lon="6.60308">
        <ele>2207.9</ele>
        <time>2022-07-14T11:11:01Z</time>
      </trkpt>
      <trkpt lat="44.2208" lon="6.60314">
        <ele>2206.9</ele>
        <time>2022-07-14T11:11:13Z</time>
      </trkpt>
      <trkpt lat="44.22072" lon="6.60319">
        <ele>2205.6</ele>
        <time>2022-07-14T11:11:24Z</time>
      </trkpt>
      <trkpt lat="44.22063" lon="6.60325">
        <ele>2204.7</ele>
        <time>2022-07-14T11:11:32Z</time>
      </trkpt>
      <trkpt lat="44.22059" lon="6.60337">
        <ele>2203.6</ele>
        <time>2022-07-14T11:11:40Z</time>
      </trkpt>
      <trkpt lat="44.22057" lon="6.6035">
        <ele>2203.7</ele>
        <time>2022-07-14T11:11:50Z</time>
      </trkpt>
      <trkpt lat="44.22057" lon="6.60364">
        <ele>2203.5</ele>
        <time>2022-07-14T11:11:59Z</time>
      </trkpt>
      <trkpt lat="44.22056" lon="6.60377">
        <ele>2202.7</ele>
        <time>2022-07-14T11:12:08Z</time>
      </trkpt>
      <trkpt lat="44.22055" lon="6.60391">
        <ele>2201.8</ele>
        <time>2022-07-14T11:12:17Z</time>
      </trkpt>
      <trkpt lat="44.22051" lon="6.60404">
        <ele>2200.5</ele>
        <time>2022-07-14T11:12:27Z</time>
      </trkpt>
      <trkpt lat="44.22044" lon="6.60413">
        <ele>2199.6</ele>
        <time>2022-07-14T11:12:36Z</time>
      </trkpt>
      <trkpt lat="44.22038" lon="6.60422">
        <ele>2197.6</ele>
        <time>2022-07-14T11:12:46Z</time>
      </trkpt>
      <trkpt lat="44.22035" lon="6.60435">
        <ele>2193.9</ele>
        <time>2022-07-14T11:12:58Z</time>
      </trkpt>
      <trkpt lat="44.22026" lon="6.60438">
        <ele>2193.4</ele>
        <time>2022-07-14T11:13:09Z</time>
      </trkpt>
      <trkpt lat="44.22018" lon="6.60445">
        <ele>2192.1</ele>
        <time>2022-07-14T11:13:18Z</time>
      </trkpt>
      <trkpt lat="44.22011" lon="6.60455">
        <ele>2190.1</ele>
        <time>2022-07-14T11:13:28Z</time>
      </trkpt>
      <trkpt lat="44.22005" lon="6.60465">
        <ele>2188.4</ele>
        <time>2022-07-14T11:13:37Z</time>
      </trkpt>
      <trkpt lat="44.22001" lon="6.60477">
        <ele>2186.4</ele>
        <time>2022-07-14T11:13:48Z</time>
      </trkpt>
      <trkpt lat="44.21995" lon="6.60487">
        <ele>2186.9</ele>
        <time>2022-07-14T11:14:02Z</time>
      </trkpt>
      <trkpt lat="44.2199" lon="6.60497">
        <ele>2187.4</ele>
        <time>2022-07-14T11:14:11Z</time>
      </trkpt>
      <trkpt lat="44.21989" lon="6.6051">
        <ele>2187.6</ele>
        <time>2022-07-14T11:14:21Z</time>
      </trkpt>
      <trkpt lat="44.21994" lon="6.60521">
        <ele>2184.2</ele>
        <time>2022-07-14T11:14:31Z</time>
      </trkpt>
      <trkpt lat="44.22001" lon="6.6053">
        <ele>2180.1</ele>
        <time>2022-07-14T11:14:41Z</time>
      </trkpt>
      <trkpt lat="44.22004" lon="6.60542">
        <ele>2181.7</ele>
        <time>2022-07-14T11:14:51Z</time>
      </trkpt>
      <trkpt lat="44.22013" lon="6.60541">
        <ele>2175.9</ele>
        <time>2022-07-14T11:15:02Z</time>
      </trkpt>
      <trkpt lat="44.22011" lon="6.60528">
        <ele>2174.1</ele>
        <time>2022-07-14T11:15:12Z</time>
      </trkpt>
      <trkpt lat="44.2201" lon="6.60516">
        <ele>2175.5</ele>
        <time>2022-07-14T11:15:20Z</time>
      </trkpt>
      <trkpt lat="44.22016" lon="6.60504">
        <ele>2174</ele>
        <time>2022-07-14T11:15:28Z</time>
      </trkpt>
      <trkpt lat="44.22026" lon="6.60504">
        <ele>2170.2</ele>
        <time>2022-07-14T11:15:36Z</time>
      </trkpt>
      <trkpt lat="44.22035" lon="6.60502">
        <ele>2169.6</ele>
        <time>2022-07-14T11:15:44Z</time>
      </trkpt>
      <trkpt lat="44.22044" lon="6.60504">
        <ele>2168.8</ele>
        <time>2022-07-14T11:15:55Z</time>
      </trkpt>
      <trkpt lat="44.22052" lon="6.6051">
        <ele>2166.6</ele>
        <time>2022-07-14T11:16:07Z</time>
      </trkpt>
      <trkpt lat="44.22057" lon="6.60521">
        <ele>2162.3</ele>
        <time>2022-07-14T11:16:18Z</time>
      </trkpt>
      <trkpt lat="44.22064" lon="6.60529">
        <ele>2158.7</ele>
        <time>2022-07-14T11:16:30Z</time>
      </trkpt>
      <trkpt lat="44.2207" lon="6.60539">
        <ele>2155.4</ele>
        <time>2022-07-14T11:16:42Z</time>
      </trkpt>
      <trkpt lat="44.22074" lon="6.6055">
        <ele>2151.8</ele>
        <time>2022-07-14T11:16:54Z</time>
      </trkpt>
      <trkpt lat="44.22083" lon="6.60554">
        <ele>2149.3</ele>
        <time>2022-07-14T11:17:06Z</time>
      </trkpt>
      <trkpt lat="44.22092" lon="6.6056">
        <ele>2145.8</ele>
        <time>2022-07-14T11:17:19Z</time>
      </trkpt>
      <trkpt lat="44.22101" lon="6.60565">
        <ele>2142.4</ele>
        <time>2022-07-14T11:17:34Z</time>
      </trkpt>
      <trkpt lat="44.2211" lon="6.60567">
        <ele>2139.7</ele>
        <time>2022-07-14T11:17:43Z</time>
      </trkpt>
      <trkpt lat="44.22119" lon="6.60564">
        <ele>2137.9</ele>
        <time>2022-07-14T11:17:52Z</time>
      </trkpt>
      <trkpt lat="44.22124" lon="6.60554">
        <ele>2138.7</ele>
        <time>2022-07-14T11:18:06Z</time>
      </trkpt>
      <trkpt lat="44.22131" lon="6.60545">
        <ele>2139.4</ele>
        <time>2022-07-14T11:18:17Z</time>
      </trkpt>
      <trkpt lat="44.22138" lon="6.60536">
        <ele>2139.8</ele>
        <time>2022-07-14T11:18:29Z</time>
      </trkpt>
      <trkpt lat="44.22147" lon="6.60538">
        <ele>2137.9</ele>
        <time>2022-07-14T11:18:39Z</time>
      </trkpt>
      <trkpt lat="44.22155" lon="6.60544">
        <ele>2134.8</ele>
        <time>2022-07-14T11:18:50Z</time>
      </trkpt>
      <trkpt lat="44.22164" lon="6.60549">
        <ele>2131.6</ele>
        <time>2022-07-14T11:19:05Z</time>
      </trkpt>
      <trkpt lat="44.22172" lon="6.60553">
        <ele>2128.5</ele>
        <time>2022-07-14T11:19:17Z</time>
      </trkpt>
      <trkpt lat="44.22181" lon="6.60559">
        <ele>2125</ele>
        <time>2022-07-14T11:19:30Z</time>
      </trkpt>
      <trkpt lat="44.2219" lon="6.60564">
        <ele>2121.8</ele>
        <time>2022-07-14T11:19:41Z</time>
      </trkpt>
      <trkpt lat="44.222" lon="6.60565">
        <ele>2118.9</ele>
        <time>2022-07-14T11:19:53Z</time>
      </trkpt>
      <trkpt lat="44.22209" lon="6.60565">
        <ele>2115.6</ele>
        <time>2022-07-14T11:20:08Z</time>
      </trkpt>
      <trkpt lat="44.22217" lon="6.60559">
        <ele>2113.3</ele>
        <time>2022-07-14T11:20:22Z</time>
      </trkpt>
      <trkpt lat="44.22225" lon="6.60552">
        <ele>2111.4</ele>
        <time>2022-07-14T11:20:35Z</time>
      </trkpt>
      <trkpt lat="44.22233" lon="6.60545">
        <ele>2109.3</ele>
        <time>2022-07-14T11:20:48Z</time>
      </trkpt>
      <trkpt lat="44.2224" lon="6.60538">
        <ele>2107.6</ele>
        <time>2022-07-14T11:20:59Z</time>
      </trkpt>
      <trkpt lat="44.2225" lon="6.60534">
        <ele>2104.3</ele>
        <time>2022-07-14T11:21:20Z</time>
      </trkpt>
      <trkpt lat="44.22259" lon="6.60531">
        <ele>2100.8</ele>
        <time>2022-07-14T11:21:33Z</time>
      </trkpt>
      <trkpt lat="44.22267" lon="6.60537">
        <ele>2096.7</ele>
        <time>2022-07-14T11:21:48Z</time>
      </trkpt>
      <trkpt lat="44.22266" lon="6.60549">
        <ele>2096.1</ele>
        <time>2022-07-14T11:21:57Z</time>
      </trkpt>
      <trkpt lat="44.22263" lon="6.60561">
        <ele>2095.7</ele>
        <time>2022-07-14T11:22:05Z</time>
      </trkpt>
      <trkpt lat="44.22259" lon="6.60574">
        <ele>2095.3</ele>
        <time>2022-07-14T11:22:13Z</time>
      </trkpt>
      <trkpt lat="44.22255" lon="6.60587">
        <ele>2094.5</ele>
        <time>2022-07-14T11:22:22Z</time>
      </trkpt>
      <trkpt lat="44.22262" lon="6.60596">
        <ele>2089.6</ele>
        <time>2022-07-14T11:22:38Z</time>
      </trkpt>
      <trkpt lat="44.22271" lon="6.60592">
        <ele>2087.7</ele>
        <time>2022-07-14T11:22:53Z</time>
      </trkpt>
      <trkpt lat="44.22279" lon="6.60586">
        <ele>2086.7</ele>
        <time>2022-07-14T11:23:12Z</time>
      </trkpt>
      <trkpt lat="44.22287" lon="6.60579">
        <ele>2084.6</ele>
        <time>2022-07-14T11:23:26Z</time>
      </trkpt>
      <trkpt lat="44.22297" lon="6.60577">
        <ele>2081.2</ele>
        <time>2022-07-14T11:23:40Z</time>
      </trkpt>
      <trkpt lat="44.22307" lon="6.60574">
        <ele>2077.5</ele>
        <time>2022-07-14T11:23:52Z</time>
      </trkpt>
      <trkpt lat="44.22315" lon="6.60567">
        <ele>2074.3</ele>
        <time>2022-07-14T11:24:08Z</time>
      </trkpt>
      <trkpt lat="44.22314" lon="6.60555">
        <ele>2075.8</ele>
        <time>2022-07-14T11:24:16Z</time>
      </trkpt>
      <trkpt lat="44.22314" lon="6.60541">
        <ele>2076</ele>
        <time>2022-07-14T11:24:25Z</time>
      </trkpt>
      <trkpt lat="44.22314" lon="6.60528">
        <ele>2075.7</ele>
        <time>2022-07-14T11:24:33Z</time>
      </trkpt>
      <trkpt lat="44.22316" lon="6.60515">
        <ele>2074.9</ele>
        <time>2022-07-14T11:24:43Z</time>
      </trkpt>
      <trkpt lat="44.2232" lon="6.60502">
        <ele>2073.8</ele>
        <time>2022-07-14T11:24:54Z</time>
      </trkpt>
      <trkpt lat="44.22326" lon="6.60491">
        <ele>2072.7</ele>
        <time>2022-07-14T11:25:04Z</time>
      </trkpt>
      <trkpt lat="44.22334" lon="6.60484">
        <ele>2070.1</ele>
        <time>2022-07-14T11:25:11Z</time>
      </trkpt>
      <trkpt lat="44.22341" lon="6.60476">
        <ele>2068</ele>
        <time>2022-07-14T11:25:19Z</time>
      </trkpt>
      <trkpt lat="44.2235" lon="6.60469">
        <ele>2065.6</ele>
        <time>2022-07-14T11:25:27Z</time>
      </trkpt>
      <trkpt lat="44.22355" lon="6.60458">
        <ele>2065</ele>
        <time>2022-07-14T11:25:42Z</time>
      </trkpt>
      <trkpt lat="44.22364" lon="6.60454">
        <ele>2062.3</ele>
        <time>2022-07-14T11:25:56Z</time>
      </trkpt>
      <trkpt lat="44.22372" lon="6.60458">
        <ele>2059.5</ele>
        <time>2022-07-14T11:26:07Z</time>
      </trkpt>
      <trkpt lat="44.22381" lon="6.60463">
        <ele>2056.3</ele>
        <time>2022-07-14T11:26:25Z</time>
      </trkpt>
      <trkpt lat="44.22383" lon="6.60476">
        <ele>2053.5</ele>
        <time>2022-07-14T11:26:39Z</time>
      </trkpt>
      <trkpt lat="44.22391" lon="6.60481">
        <ele>2049.9</ele>
        <time>2022-07-14T11:26:56Z</time>
      </trkpt>
      <trkpt lat="44.22397" lon="6.60491">
        <ele>2047</ele>
        <time>2022-07-14T11:27:11Z</time>
      </trkpt>
      <trkpt lat="44.22403" lon="6.60501">
        <ele>2044.4</ele>
        <time>2022-07-14T11:27:26Z</time>
      </trkpt>
      <trkpt lat="44.22408" lon="6.60512">
        <ele>2041.6</ele>
        <time>2022-07-14T11:27:40Z</time>
      </trkpt>
      <trkpt lat="44.22412" lon="6.60523">
        <ele>2038.9</ele>
        <time>2022-07-14T11:27:54Z</time>
      </trkpt>
      <trkpt lat="44.22418" lon="6.60534">
        <ele>2036.1</ele>
        <time>2022-07-14T11:28:08Z</time>
      </trkpt>
      <trkpt lat="44.22423" lon="6.60543">
        <ele>2034</ele>
        <time>2022-07-14T11:28:26Z</time>
      </trkpt>
      <trkpt lat="44.22431" lon="6.60552">
        <ele>2032</ele>
        <time>2022-07-14T11:28:38Z</time>
      </trkpt>
      <trkpt lat="44.22439" lon="6.60557">
        <ele>2030.4</ele>
        <time>2022-07-14T11:28:50Z</time>
      </trkpt>
      <trkpt lat="44.22446" lon="6.60566">
        <ele>2028.5</ele>
        <time>2022-07-14T11:29:01Z</time>
      </trkpt>
      <trkpt lat="44.22449" lon="6.60578">
        <ele>2026.8</ele>
        <time>2022-07-14T11:29:11Z</time>
      </trkpt>
      <trkpt lat="44.22451" lon="6.6059">
        <ele>2024.4</ele>
        <time>2022-07-14T11:29:22Z</time>
      </trkpt>
      <trkpt lat="44.22454" lon="6.60603">
        <ele>2021.4</ele>
        <time>2022-07-14T11:29:36Z</time>
      </trkpt>
      <trkpt lat="44.2245" lon="6.60616">
        <ele>2018.6</ele>
        <time>2022-07-14T11:29:55Z</time>
      </trkpt>
      <trkpt lat="44.22443" lon="6.60623">
        <ele>2017.8</ele>
        <time>2022-07-14T11:30:07Z</time>
      </trkpt>
      <trkpt lat="44.22437" lon="6.60635">
        <ele>2016.7</ele>
        <time>2022-07-14T11:30:18Z</time>
      </trkpt>
      <trkpt lat="44.22441" lon="6.60647">
        <ele>2013.7</ele>
        <time>2022-07-14T11:30:36Z</time>
      </trkpt>
      <trkpt lat="44.22449" lon="6.60654">
        <ele>2011.2</ele>
        <time>2022-07-14T11:30:48Z</time>
      </trkpt>
      <trkpt lat="44.22458" lon="6.60656">
        <ele>2009.8</ele>
        <time>2022-07-14T11:30:57Z</time>
      </trkpt>
      <trkpt lat="44.22467" lon="6.60661">
        <ele>2007.6</ele>
        <time>2022-07-14T11:31:06Z</time>
      </trkpt>
      <trkpt lat="44.22475" lon="6.60668">
        <ele>2005.6</ele>
        <time>2022-07-14T11:31:14Z</time>
      </trkpt>
      <trkpt lat="44.22484" lon="6.60672">
        <ele>2004.4</ele>
        <time>2022-07-14T11:31:23Z</time>
      </trkpt>
      <trkpt lat="44.22492" lon="6.60679">
        <ele>2003.1</ele>
        <time>2022-07-14T11:31:32Z</time>
      </trkpt>
      <trkpt lat="44.225" lon="6.60685">
        <ele>2001.7</ele>
        <time>2022-07-14T11:31:40Z</time>
      </trkpt>
      <trkpt lat="44.2251" lon="6.60689">
        <ele>2000.3</ele>
        <time>2022-07-14T11:31:49Z</time>
      </trkpt>
      <trkpt lat="44.22518" lon="6.60684">
        <ele>2000.1</ele>
        <time>2022-07-14T11:31:57Z</time>
      </trkpt>
      <trkpt lat="44.22528" lon="6.60685">
        <ele>1999</ele>
        <time>2022-07-14T11:32:08Z</time>
      </trkpt>
      <trkpt lat="44.22535" lon="6.60694">
        <ele>1996</ele>
        <time>2022-07-14T11:32:16Z</time>
      </trkpt>
      <trkpt lat="44.22542" lon="6.60704">
        <ele>1993.9</ele>
        <time>2022-07-14T11:32:29Z</time>
      </trkpt>
      <trkpt lat="44.22551" lon="6.60707">
        <ele>1992</ele>
        <time>2022-07-14T11:32:37Z</time>
      </trkpt>
      <trkpt lat="44.22562" lon="6.60707">
        <ele>1989.4</ele>
        <time>2022-07-14T11:32:46Z</time>
      </trkpt>
      <trkpt lat="44.2257" lon="6.60703">
        <ele>1987.8</ele>
        <time>2022-07-14T11:32:56Z</time>
      </trkpt>
      <trkpt lat="44.2258" lon="6.60706">
        <ele>1984.2</ele>
        <time>2022-07-14T11:33:04Z</time>
      </trkpt>
      <trkpt lat="44.22589" lon="6.60705">
        <ele>1982.4</ele>
        <time>2022-07-14T11:33:11Z</time>
      </trkpt>
      <trkpt lat="44.22597" lon="6.60696">
        <ele>1982.7</ele>
        <time>2022-07-14T11:33:23Z</time>
      </trkpt>
      <trkpt lat="44.22601" lon="6.60685">
        <ele>1984.3</ele>
        <time>2022-07-14T11:33:33Z</time>
      </trkpt>
      <trkpt lat="44.22608" lon="6.60677">
        <ele>1983.7</ele>
        <time>2022-07-14T11:33:44Z</time>
      </trkpt>
      <trkpt lat="44.22617" lon="6.60672">
        <ele>1981.4</ele>
        <time>2022-07-14T11:33:55Z</time>
      </trkpt>
      <trkpt lat="44.22626" lon="6.60671">
        <ele>1977.5</ele>
        <time>2022-07-14T11:34:06Z</time>
      </trkpt>
      <trkpt lat="44.22635" lon="6.60668">
        <ele>1974.2</ele>
        <time>2022-07-14T11:34:16Z</time>
      </trkpt>
      <trkpt lat="44.22645" lon="6.60665">
        <ele>1972.4</ele>
        <time>2022-07-14T11:34:28Z</time>
      </trkpt>
      <trkpt lat="44.22654" lon="6.60665">
        <ele>1970.4</ele>
        <time>2022-07-14T11:34:47Z</time>
      </trkpt>
      <trkpt lat="44.22663" lon="6.60661">
        <ele>1970.1</ele>
        <time>2022-07-14T11:35:00Z</time>
      </trkpt>
      <trkpt lat="44.22672" lon="6.60659">
        <ele>1968.8</ele>
        <time>2022-07-14T11:35:11Z</time>
      </trkpt>
      <trkpt lat="44.22682" lon="6.60656">
        <ele>1967</ele>
        <time>2022-07-14T11:35:20Z</time>
      </trkpt>
      <trkpt lat="44.22692" lon="6.60656">
        <ele>1963.9</ele>
        <time>2022-07-14T11:35:29Z</time>
      </trkpt>
      <trkpt lat="44.227" lon="6.60652">
        <ele>1962.5</ele>
        <time>2022-07-14T11:35:41Z</time>
      </trkpt>
      <trkpt lat="44.2271" lon="6.60655">
        <ele>1958.3</ele>
        <time>2022-07-14T11:35:50Z</time>
      </trkpt>
      <trkpt lat="44.22719" lon="6.60661">
        <ele>1954.9</ele>
        <time>2022-07-14T11:35:59Z</time>
      </trkpt>
      <trkpt lat="44.22729" lon="6.60663">
        <ele>1954.2</ele>
        <time>2022-07-14T11:36:06Z</time>
      </trkpt>
      <trkpt lat="44.22737" lon="6.60669">
        <ele>1954.4</ele>
        <time>2022-07-14T11:36:13Z</time>
      </trkpt>
      <trkpt lat="44.22743" lon="6.60678">
        <ele>1953.9</ele>
        <time>2022-07-14T11:36:22Z</time>
      </trkpt>
      <trkpt lat="44.22748" lon="6.6069">
        <ele>1953.3</ele>
        <time>2022-07-14T11:36:30Z</time>
      </trkpt>
      <trkpt lat="44.22755" lon="6.607">
        <ele>1953.3</ele>
        <time>2022-07-14T11:36:38Z</time>
      </trkpt>
      <trkpt lat="44.2276" lon="6.60711">
        <ele>1952.8</ele>
        <time>2022-07-14T11:36:51Z</time>
      </trkpt>
      <trkpt lat="44.22767" lon="6.60721">
        <ele>1952.6</ele>
        <time>2022-07-14T11:37:10Z</time>
      </trkpt>
      <trkpt lat="44.22773" lon="6.60731">
        <ele>1951.6</ele>
        <time>2022-07-14T11:37:21Z</time>
      </trkpt>
      <trkpt lat="44.22781" lon="6.60738">
        <ele>1950.4</ele>
        <time>2022-07-14T11:37:34Z</time>
      </trkpt>
      <trkpt lat="44.22791" lon="6.6074">
        <ele>1949.2</ele>
        <time>2022-07-14T11:37:47Z</time>
      </trkpt>
      <trkpt lat="44.22801" lon="6.60739">
        <ele>1948.5</ele>
        <time>2022-07-14T11:37:58Z</time>
      </trkpt>
      <trkpt lat="44.2281" lon="6.60739">
        <ele>1947.4</ele>
        <time>2022-07-14T11:38:09Z</time>
      </trkpt>
      <trkpt lat="44.22819" lon="6.60737">
        <ele>1946.5</ele>
        <time>2022-07-14T11:38:18Z</time>
      </trkpt>
      <trkpt lat="44.22828" lon="6.60737">
        <ele>1945.1</ele>
        <time>2022-07-14T11:38:30Z</time>
      </trkpt>
      <trkpt lat="44.22837" lon="6.60734">
        <ele>1944.4</ele>
        <time>2022-07-14T11:38:42Z</time>
      </trkpt>
      <trkpt lat="44.22847" lon="6.60732">
        <ele>1943.3</ele>
        <time>2022-07-14T11:38:52Z</time>
      </trkpt>
      <trkpt lat="44.22856" lon="6.60729">
        <ele>1942.3</ele>
        <time>2022-07-14T11:39:01Z</time>
      </trkpt>
      <trkpt lat="44.22866" lon="6.60729">
        <ele>1940.8</ele>
        <time>2022-07-14T11:39:10Z</time>
      </trkpt>
      <trkpt lat="44.22875" lon="6.60729">
        <ele>1938.9</ele>
        <time>2022-07-14T11:39:20Z</time>
      </trkpt>
      <trkpt lat="44.22884" lon="6.60728">
        <ele>1937.5</ele>
        <time>2022-07-14T11:39:29Z</time>
      </trkpt>
      <trkpt lat="44.22894" lon="6.6073">
        <ele>1935.4</ele>
        <time>2022-07-14T11:39:38Z</time>
      </trkpt>
      <trkpt lat="44.22903" lon="6.60732">
        <ele>1933</ele>
        <time>2022-07-14T11:39:50Z</time>
      </trkpt>
      <trkpt lat="44.22912" lon="6.60734">
        <ele>1931.3</ele>
        <time>2022-07-14T11:39:59Z</time>
      </trkpt>
      <trkpt lat="44.22921" lon="6.60735">
        <ele>1929.6</ele>
        <time>2022-07-14T11:40:07Z</time>
      </trkpt>
      <trkpt lat="44.2293" lon="6.60736">
        <ele>1928.3</ele>
        <time>2022-07-14T11:40:16Z</time>
      </trkpt>
      <trkpt lat="44.2294" lon="6.60733">
        <ele>1928.4</ele>
        <time>2022-07-14T11:40:25Z</time>
      </trkpt>
      <trkpt lat="44.22948" lon="6.6073">
        <ele>1928.4</ele>
        <time>2022-07-14T11:40:34Z</time>
      </trkpt>
      <trkpt lat="44.22957" lon="6.60734">
        <ele>1926.1</ele>
        <time>2022-07-14T11:40:45Z</time>
      </trkpt>
      <trkpt lat="44.22967" lon="6.60737">
        <ele>1924.3</ele>
        <time>2022-07-14T11:40:54Z</time>
      </trkpt>
      <trkpt lat="44.22977" lon="6.60738">
        <ele>1923.1</ele>
        <time>2022-07-14T11:41:02Z</time>
      </trkpt>
      <trkpt lat="44.22986" lon="6.60739">
        <ele>1922.4</ele>
        <time>2022-07-14T11:41:10Z</time>
      </trkpt>
      <trkpt lat="44.22996" lon="6.60739">
        <ele>1922</ele>
        <time>2022-07-14T11:41:19Z</time>
      </trkpt>
      <trkpt lat="44.23006" lon="6.60741">
        <ele>1921.4</ele>
        <time>2022-07-14T11:41:26Z</time>
      </trkpt>
      <trkpt lat="44.23014" lon="6.60746">
        <ele>1919.7</ele>
        <time>2022-07-14T11:41:33Z</time>
      </trkpt>
      <trkpt lat="44.23023" lon="6.60753">
        <ele>1918</ele>
        <time>2022-07-14T11:41:41Z</time>
      </trkpt>
      <trkpt lat="44.23032" lon="6.60757">
        <ele>1917.1</ele>
        <time>2022-07-14T11:41:49Z</time>
      </trkpt>
      <trkpt lat="44.2304" lon="6.60764">
        <ele>1915.3</ele>
        <time>2022-07-14T11:41:56Z</time>
      </trkpt>
      <trkpt lat="44.23047" lon="6.60773">
        <ele>1913</ele>
        <time>2022-07-14T11:42:04Z</time>
      </trkpt>
      <trkpt lat="44.23054" lon="6.60784">
        <ele>1910.9</ele>
        <time>2022-07-14T11:42:13Z</time>
      </trkpt>
      <trkpt lat="44.23055" lon="6.60797">
        <ele>1908.5</ele>
        <time>2022-07-14T11:42:22Z</time>
      </trkpt>
      <trkpt lat="44.23057" lon="6.60811">
        <ele>1906.4</ele>
        <time>2022-07-14T11:42:30Z</time>
      </trkpt>
      <trkpt lat="44.23058" lon="6.60825">
        <ele>1905.1</ele>
        <time>2022-07-14T11:42:38Z</time>
      </trkpt>
      <trkpt lat="44.23058" lon="6.60838">
        <ele>1903.8</ele>
        <time>2022-07-14T11:42:46Z</time>
      </trkpt>
      <trkpt lat="44.23059" lon="6.60851">
        <ele>1902.6</ele>
        <time>2022-07-14T11:42:54Z</time>
      </trkpt>
      <trkpt lat="44.23059" lon="6.60864">
        <ele>1901.4</ele>
        <time>2022-07-14T11:43:04Z</time>
      </trkpt>
      <trkpt lat="44.23061" lon="6.60877">
        <ele>1900.7</ele>
        <time>2022-07-14T11:43:14Z</time>
      </trkpt>
      <trkpt lat="44.23064" lon="6.60889">
        <ele>1900.2</ele>
        <time>2022-07-14T11:43:22Z</time>
      </trkpt>
      <trkpt lat="44.23067" lon="6.60901">
        <ele>1899.9</ele>
        <time>2022-07-14T11:43:30Z</time>
      </trkpt>
      <trkpt lat="44.23069" lon="6.60914">
        <ele>1899.1</ele>
        <time>2022-07-14T11:43:38Z</time>
      </trkpt>
      <trkpt lat="44.23069" lon="6.60926">
        <ele>1898.6</ele>
        <time>2022-07-14T11:43:46Z</time>
      </trkpt>
      <trkpt lat="44.23066" lon="6.60938">
        <ele>1898</ele>
        <time>2022-07-14T11:43:55Z</time>
      </trkpt>
      <trkpt lat="44.2306" lon="6.60949">
        <ele>1897.3</ele>
        <time>2022-07-14T11:44:04Z</time>
      </trkpt>
      <trkpt lat="44.23051" lon="6.6095">
        <ele>1895.9</ele>
        <time>2022-07-14T11:44:20Z</time>
      </trkpt>
      <trkpt lat="44.23041" lon="6.60954">
        <ele>1893.7</ele>
        <time>2022-07-14T11:44:28Z</time>
      </trkpt>
      <trkpt lat="44.23031" lon="6.60952">
        <ele>1891.6</ele>
        <time>2022-07-14T11:44:36Z</time>
      </trkpt>
      <trkpt lat="44.23024" lon="6.60943">
        <ele>1889.8</ele>
        <time>2022-07-14T11:44:45Z</time>
      </trkpt>
      <trkpt lat="44.23018" lon="6.60931">
        <ele>1888.4</ele>
        <time>2022-07-14T11:44:54Z</time>
      </trkpt>
      <trkpt lat="44.23017" lon="6.60918">
        <ele>1888.4</ele>
        <time>2022-07-14T11:45:02Z</time>
      </trkpt>
      <trkpt lat="44.23016" lon="6.60905">
        <ele>1888.8</ele>
        <time>2022-07-14T11:45:10Z</time>
      </trkpt>
      <trkpt lat="44.23015" lon="6.60892">
        <ele>1889.2</ele>
        <time>2022-07-14T11:45:18Z</time>
      </trkpt>
      <trkpt lat="44.23012" lon="6.6088">
        <ele>1889.5</ele>
        <time>2022-07-14T11:45:27Z</time>
      </trkpt>
      <trkpt lat="44.23008" lon="6.60868">
        <ele>1889.5</ele>
        <time>2022-07-14T11:45:35Z</time>
      </trkpt>
      <trkpt lat="44.23002" lon="6.60858">
        <ele>1889.2</ele>
        <time>2022-07-14T11:45:44Z</time>
      </trkpt>
      <trkpt lat="44.22995" lon="6.60849">
        <ele>1889.8</ele>
        <time>2022-07-14T11:45:52Z</time>
      </trkpt>
      <trkpt lat="44.22985" lon="6.60851">
        <ele>1887.6</ele>
        <time>2022-07-14T11:46:01Z</time>
      </trkpt>
      <trkpt lat="44.22976" lon="6.60853">
        <ele>1885.4</ele>
        <time>2022-07-14T11:46:11Z</time>
      </trkpt>
      <trkpt lat="44.22971" lon="6.60864">
        <ele>1882.4</ele>
        <time>2022-07-14T11:46:21Z</time>
      </trkpt>
      <trkpt lat="44.22967" lon="6.60876">
        <ele>1880</ele>
        <time>2022-07-14T11:46:34Z</time>
      </trkpt>
      <trkpt lat="44.22964" lon="6.60889">
        <ele>1877.1</ele>
        <time>2022-07-14T11:46:44Z</time>
      </trkpt>
      <trkpt lat="44.22962" lon="6.60901">
        <ele>1875.2</ele>
        <time>2022-07-14T11:46:54Z</time>
      </trkpt>
      <trkpt lat="44.2296" lon="6.60914">
        <ele>1873.3</ele>
        <time>2022-07-14T11:47:03Z</time>
      </trkpt>
      <trkpt lat="44.2296" lon="6.60927">
        <ele>1871.4</ele>
        <time>2022-07-14T11:47:14Z</time>
      </trkpt>
      <trkpt lat="44.22959" lon="6.60939">
        <ele>1869.3</ele>
        <time>2022-07-14T11:47:24Z</time>
      </trkpt>
      <trkpt lat="44.22958" lon="6.60953">
        <ele>1867.9</ele>
        <time>2022-07-14T11:47:33Z</time>
      </trkpt>
      <trkpt lat="44.22955" lon="6.60965">
        <ele>1866.6</ele>
        <time>2022-07-14T11:47:41Z</time>
      </trkpt>
      <trkpt lat="44.22954" lon="6.60978">
        <ele>1865.7</ele>
        <time>2022-07-14T11:47:50Z</time>
      </trkpt>
      <trkpt lat="44.22953" lon="6.60992">
        <ele>1864.7</ele>
        <time>2022-07-14T11:47:59Z</time>
      </trkpt>
      <trkpt lat="44.2295" lon="6.61004">
        <ele>1863.1</ele>
        <time>2022-07-14T11:48:08Z</time>
      </trkpt>
      <trkpt lat="44.22946" lon="6.61016">
        <ele>1861.3</ele>
        <time>2022-07-14T11:48:15Z</time>
      </trkpt>
      <trkpt lat="44.22943" lon="6.61029">
        <ele>1859.9</ele>
        <time>2022-07-14T11:48:23Z</time>
      </trkpt>
      <trkpt lat="44.2294" lon="6.61042">
        <ele>1859.4</ele>
        <time>2022-07-14T11:48:31Z</time>
      </trkpt>
      <trkpt lat="44.22939" lon="6.61056">
        <ele>1858.8</ele>
        <time>2022-07-14T11:48:39Z</time>
      </trkpt>
      <trkpt lat="44.22937" lon="6.6107">
        <ele>1858.1</ele>
        <time>2022-07-14T11:48:47Z</time>
      </trkpt>
      <trkpt lat="44.22933" lon="6.61082">
        <ele>1857.3</ele>
        <time>2022-07-14T11:48:55Z</time>
      </trkpt>
      <trkpt lat="44.22933" lon="6.61096">
        <ele>1856.9</ele>
        <time>2022-07-14T11:49:03Z</time>
      </trkpt>
      <trkpt lat="44.22932" lon="6.61109">
        <ele>1856.7</ele>
        <time>2022-07-14T11:49:10Z</time>
      </trkpt>
      <trkpt lat="44.22928" lon="6.61122">
        <ele>1855.9</ele>
        <time>2022-07-14T11:49:18Z</time>
      </trkpt>
      <trkpt lat="44.22926" lon="6.61135">
        <ele>1855.1</ele>
        <time>2022-07-14T11:49:26Z</time>
      </trkpt>
      <trkpt lat="44.22926" lon="6.61149">
        <ele>1854.7</ele>
        <time>2022-07-14T11:49:35Z</time>
      </trkpt>
      <trkpt lat="44.22927" lon="6.61162">
        <ele>1854.5</ele>
        <time>2022-07-14T11:49:45Z</time>
      </trkpt>
      <trkpt lat="44.22923" lon="6.61175">
        <ele>1853.4</ele>
        <time>2022-07-14T11:49:52Z</time>
      </trkpt>
      <trkpt lat="44.2292" lon="6.61188">
        <ele>1852.2</ele>
        <time>2022-07-14T11:50:01Z</time>
      </trkpt>
      <trkpt lat="44.22918" lon="6.612">
        <ele>1850.8</ele>
        <time>2022-07-14T11:50:09Z</time>
      </trkpt>
      <trkpt lat="44.22919" lon="6.61214">
        <ele>1849.5</ele>
        <time>2022-07-14T11:50:17Z</time>
      </trkpt>
      <trkpt lat="44.2292" lon="6.61226">
        <ele>1848.7</ele>
        <time>2022-07-14T11:50:25Z</time>
      </trkpt>
      <trkpt lat="44.22921" lon="6.6124">
        <ele>1847.5</ele>
        <time>2022-07-14T11:50:34Z</time>
      </trkpt>
      <trkpt lat="44.22922" lon="6.61253">
        <ele>1846.4</ele>
        <time>2022-07-14T11:50:42Z</time>
      </trkpt>
      <trkpt lat="44.22924" lon="6.61267">
        <ele>1844.4</ele>
        <time>2022-07-14T11:50:51Z</time>
      </trkpt>
      <trkpt lat="44.22925" lon="6.6128">
        <ele>1842.3</ele>
        <time>2022-07-14T11:50:59Z</time>
      </trkpt>
      <trkpt lat="44.22931" lon="6.61291">
        <ele>1840.9</ele>
        <time>2022-07-14T11:51:07Z</time>
      </trkpt>
      <trkpt lat="44.22938" lon="6.61301">
        <ele>1840.2</ele>
        <time>2022-07-14T11:51:15Z</time>
      </trkpt>
      <trkpt lat="44.22946" lon="6.61308">
        <ele>1840.4</ele>
        <time>2022-07-14T11:51:23Z</time>
      </trkpt>
      <trkpt lat="44.22954" lon="6.61315">
        <ele>1839.7</ele>
        <time>2022-07-14T11:51:32Z</time>
      </trkpt>
      <trkpt lat="44.22962" lon="6.61322">
        <ele>1838.9</ele>
        <time>2022-07-14T11:51:40Z</time>
      </trkpt>
      <trkpt lat="44.22971" lon="6.61328">
        <ele>1837.9</ele>
        <time>2022-07-14T11:51:48Z</time>
      </trkpt>
      <trkpt lat="44.22978" lon="6.61338">
        <ele>1837.3</ele>
        <time>2022-07-14T11:51:57Z</time>
      </trkpt>
      <trkpt lat="44.22986" lon="6.61346">
        <ele>1838.1</ele>
        <time>2022-07-14T11:52:06Z</time>
      </trkpt>
      <trkpt lat="44.22991" lon="6.61358">
        <ele>1836.5</ele>
        <time>2022-07-14T11:52:14Z</time>
      </trkpt>
      <trkpt lat="44.22996" lon="6.61369">
        <ele>1835.1</ele>
        <time>2022-07-14T11:52:23Z</time>
      </trkpt>
      <trkpt lat="44.23" lon="6.61382">
        <ele>1832.9</ele>
        <time>2022-07-14T11:52:32Z</time>
      </trkpt>
      <trkpt lat="44.23004" lon="6.61394">
        <ele>1831.4</ele>
        <time>2022-07-14T11:52:41Z</time>
      </trkpt>
      <trkpt lat="44.23006" lon="6.61407">
        <ele>1829</ele>
        <time>2022-07-14T11:52:48Z</time>
      </trkpt>
      <trkpt lat="44.2301" lon="6.6142">
        <ele>1827.1</ele>
        <time>2022-07-14T11:52:57Z</time>
      </trkpt>
      <trkpt lat="44.23014" lon="6.61432">
        <ele>1825.7</ele>
        <time>2022-07-14T11:53:04Z</time>
      </trkpt>
      <trkpt lat="44.23018" lon="6.61445">
        <ele>1823.5</ele>
        <time>2022-07-14T11:53:13Z</time>
      </trkpt>
      <trkpt lat="44.23027" lon="6.61451">
        <ele>1824.7</ele>
        <time>2022-07-14T11:53:23Z</time>
      </trkpt>
      <trkpt lat="44.23032" lon="6.61462">
        <ele>1824.1</ele>
        <time>2022-07-14T11:53:32Z</time>
      </trkpt>
      <trkpt lat="44.2303" lon="6.61475">
        <ele>1821.7</ele>
        <time>2022-07-14T11:53:41Z</time>
      </trkpt>
      <trkpt lat="44.23021" lon="6.61471">
        <ele>1820</ele>
        <time>2022-07-14T11:53:48Z</time>
      </trkpt>
      <trkpt lat="44.23014" lon="6.61462">
        <ele>1819.4</ele>
        <time>2022-07-14T11:53:55Z</time>
      </trkpt>
      <trkpt lat="44.23008" lon="6.61452">
        <ele>1819.5</ele>
        <time>2022-07-14T11:54:03Z</time>
      </trkpt>
      <trkpt lat="44.23002" lon="6.61442">
        <ele>1819.9</ele>
        <time>2022-07-14T11:54:10Z</time>
      </trkpt>
      <trkpt lat="44.22996" lon="6.61433">
        <ele>1819.2</ele>
        <time>2022-07-14T11:54:18Z</time>
      </trkpt>
      <trkpt lat="44.2299" lon="6.61422">
        <ele>1818.9</ele>
        <time>2022-07-14T11:54:26Z</time>
      </trkpt>
      <trkpt lat="44.22983" lon="6.61412">
        <ele>1818.5</ele>
        <time>2022-07-14T11:54:35Z</time>
      </trkpt>
      <trkpt lat="44.22976" lon="6.61402">
        <ele>1818.2</ele>
        <time>2022-07-14T11:54:43Z</time>
      </trkpt>
      <trkpt lat="44.22968" lon="6.61395">
        <ele>1817.5</ele>
        <time>2022-07-14T11:54:51Z</time>
      </trkpt>
      <trkpt lat="44.22961" lon="6.61387">
        <ele>1817.9</ele>
        <time>2022-07-14T11:55:00Z</time>
      </trkpt>
      <trkpt lat="44.22953" lon="6.61381">
        <ele>1818.1</ele>
        <time>2022-07-14T11:55:07Z</time>
      </trkpt>
      <trkpt lat="44.22943" lon="6.61378">
        <ele>1817.4</ele>
        <time>2022-07-14T11:55:15Z</time>
      </trkpt>
      <trkpt lat="44.22934" lon="6.61376">
        <ele>1815.3</ele>
        <time>2022-07-14T11:55:24Z</time>
      </trkpt>
      <trkpt lat="44.22925" lon="6.61372">
        <ele>1814.3</ele>
        <time>2022-07-14T11:55:33Z</time>
      </trkpt>
      <trkpt lat="44.22917" lon="6.61367">
        <ele>1813.5</ele>
        <time>2022-07-14T11:55:42Z</time>
      </trkpt>
      <trkpt lat="44.22908" lon="6.61362">
        <ele>1814.5</ele>
        <time>2022-07-14T11:55:51Z</time>
      </trkpt>
      <trkpt lat="44.22901" lon="6.61371">
        <ele>1812.3</ele>
        <time>2022-07-14T11:56:01Z</time>
      </trkpt>
      <trkpt lat="44.22909" lon="6.61381">
        <ele>1809.6</ele>
        <time>2022-07-14T11:56:08Z</time>
      </trkpt>
      <trkpt lat="44.22918" lon="6.61386">
        <ele>1808.2</ele>
        <time>2022-07-14T11:56:16Z</time>
      </trkpt>
      <trkpt lat="44.22927" lon="6.6139">
        <ele>1809.3</ele>
        <time>2022-07-14T11:56:24Z</time>
      </trkpt>
      <trkpt lat="44.22935" lon="6.61399">
        <ele>1808.7</ele>
        <time>2022-07-14T11:56:32Z</time>
      </trkpt>
      <trkpt lat="44.22943" lon="6.61408">
        <ele>1807.6</ele>
        <time>2022-07-14T11:56:40Z</time>
      </trkpt>
      <trkpt lat="44.2295" lon="6.61417">
        <ele>1806.5</ele>
        <time>2022-07-14T11:56:48Z</time>
      </trkpt>
      <trkpt lat="44.22958" lon="6.61426">
        <ele>1806.2</ele>
        <time>2022-07-14T11:56:56Z</time>
      </trkpt>
      <trkpt lat="44.22963" lon="6.61437">
        <ele>1805</ele>
        <time>2022-07-14T11:57:06Z</time>
      </trkpt>
      <trkpt lat="44.22968" lon="6.61448">
        <ele>1804</ele>
        <time>2022-07-14T11:57:14Z</time>
      </trkpt>
      <trkpt lat="44.22972" lon="6.6146">
        <ele>1802.7</ele>
        <time>2022-07-14T11:57:23Z</time>
      </trkpt>
      <trkpt lat="44.22975" lon="6.61473">
        <ele>1801.3</ele>
        <time>2022-07-14T11:57:32Z</time>
      </trkpt>
      <trkpt lat="44.22977" lon="6.61486">
        <ele>1799.3</ele>
        <time>2022-07-14T11:57:39Z</time>
      </trkpt>
      <trkpt lat="44.22983" lon="6.61496">
        <ele>1799.8</ele>
        <time>2022-07-14T11:57:47Z</time>
      </trkpt>
      <trkpt lat="44.22988" lon="6.61509">
        <ele>1799</ele>
        <time>2022-07-14T11:57:55Z</time>
      </trkpt>
      <trkpt lat="44.22993" lon="6.61521">
        <ele>1798.1</ele>
        <time>2022-07-14T11:58:03Z</time>
      </trkpt>
      <trkpt lat="44.22998" lon="6.61532">
        <ele>1797.7</ele>
        <time>2022-07-14T11:58:11Z</time>
      </trkpt>
      <trkpt lat="44.23005" lon="6.61543">
        <ele>1796.5</ele>
        <time>2022-07-14T11:58:19Z</time>
      </trkpt>
      <trkpt lat="44.23011" lon="6.61553">
        <ele>1795</ele>
        <time>2022-07-14T11:58:27Z</time>
      </trkpt>
      <trkpt lat="44.23017" lon="6.61563">
        <ele>1793.3</ele>
        <time>2022-07-14T11:58:36Z</time>
      </trkpt>
      <trkpt lat="44.23025" lon="6.61572">
        <ele>1792.8</ele>
        <time>2022-07-14T11:58:43Z</time>
      </trkpt>
      <trkpt lat="44.23032" lon="6.61579">
        <ele>1792.1</ele>
        <time>2022-07-14T11:58:50Z</time>
      </trkpt>
      <trkpt lat="44.23036" lon="6.61591">
        <ele>1789.6</ele>
        <time>2022-07-14T11:58:58Z</time>
      </trkpt>
      <trkpt lat="44.23042" lon="6.61601">
        <ele>1788.4</ele>
        <time>2022-07-14T11:59:06Z</time>
      </trkpt>
      <trkpt lat="44.23048" lon="6.61611">
        <ele>1787.7</ele>
        <time>2022-07-14T11:59:14Z</time>
      </trkpt>
      <trkpt lat="44.23054" lon="6.61621">
        <ele>1786.6</ele>
        <time>2022-07-14T11:59:23Z</time>
      </trkpt>
      <trkpt lat="44.23061" lon="6.61631">
        <ele>1785.5</ele>
        <time>2022-07-14T11:59:32Z</time>
      </trkpt>
      <trkpt lat="44.23067" lon="6.61641">
        <ele>1784.4</ele>
        <time>2022-07-14T11:59:41Z</time>
      </trkpt>
      <trkpt lat="44.23074" lon="6.61651">
        <ele>1783.3</ele>
        <time>2022-07-14T11:59:49Z</time>
      </trkpt>
      <trkpt lat="44.23079" lon="6.61661">
        <ele>1782.1</ele>
        <time>2022-07-14T11:59:57Z</time>
      </trkpt>
      <trkpt lat="44.23085" lon="6.61671">
        <ele>1781</ele>
        <time>2022-07-14T12:00:05Z</time>
      </trkpt>
      <trkpt lat="44.23092" lon="6.61681">
        <ele>1779.5</ele>
        <time>2022-07-14T12:00:14Z</time>
      </trkpt>
      <trkpt lat="44.23098" lon="6.61692">
        <ele>1778.4</ele>
        <time>2022-07-14T12:00:23Z</time>
      </trkpt>
      <trkpt lat="44.23103" lon="6.61702">
        <ele>1777.5</ele>
        <time>2022-07-14T12:00:31Z</time>
      </trkpt>
      <trkpt lat="44.23108" lon="6.61715">
        <ele>1776.2</ele>
        <time>2022-07-14T12:00:40Z</time>
      </trkpt>
      <trkpt lat="44.23111" lon="6.61728">
        <ele>1775.2</ele>
        <time>2022-07-14T12:00:48Z</time>
      </trkpt>
      <trkpt lat="44.23115" lon="6.61739">
        <ele>1774.1</ele>
        <time>2022-07-14T12:00:56Z</time>
      </trkpt>
      <trkpt lat="44.23118" lon="6.61752">
        <ele>1772.6</ele>
        <time>2022-07-14T12:01:05Z</time>
      </trkpt>
      <trkpt lat="44.23125" lon="6.61763">
        <ele>1771.2</ele>
        <time>2022-07-14T12:01:13Z</time>
      </trkpt>
      <trkpt lat="44.23131" lon="6.61773">
        <ele>1770.3</ele>
        <time>2022-07-14T12:01:22Z</time>
      </trkpt>
      <trkpt lat="44.23139" lon="6.61782">
        <ele>1770.2</ele>
        <time>2022-07-14T12:01:31Z</time>
      </trkpt>
      <trkpt lat="44.23144" lon="6.61792">
        <ele>1768.7</ele>
        <time>2022-07-14T12:01:40Z</time>
      </trkpt>
      <trkpt lat="44.2315" lon="6.61803">
        <ele>1767.3</ele>
        <time>2022-07-14T12:01:48Z</time>
      </trkpt>
      <trkpt lat="44.23157" lon="6.61812">
        <ele>1766.1</ele>
        <time>2022-07-14T12:01:55Z</time>
      </trkpt>
      <trkpt lat="44.23162" lon="6.61823">
        <ele>1764.8</ele>
        <time>2022-07-14T12:02:04Z</time>
      </trkpt>
      <trkpt lat="44.23167" lon="6.61835">
        <ele>1763.7</ele>
        <time>2022-07-14T12:02:13Z</time>
      </trkpt>
      <trkpt lat="44.23171" lon="6.61846">
        <ele>1762.1</ele>
        <time>2022-07-14T12:02:22Z</time>
      </trkpt>
      <trkpt lat="44.23177" lon="6.61857">
        <ele>1761.2</ele>
        <time>2022-07-14T12:02:32Z</time>
      </trkpt>
      <trkpt lat="44.23183" lon="6.61867">
        <ele>1760</ele>
        <time>2022-07-14T12:02:40Z</time>
      </trkpt>
      <trkpt lat="44.2319" lon="6.61876">
        <ele>1759.4</ele>
        <time>2022-07-14T12:02:48Z</time>
      </trkpt>
      <trkpt lat="44.23198" lon="6.61883">
        <ele>1758.3</ele>
        <time>2022-07-14T12:02:57Z</time>
      </trkpt>
      <trkpt lat="44.23207" lon="6.61886">
        <ele>1757.1</ele>
        <time>2022-07-14T12:03:06Z</time>
      </trkpt>
      <trkpt lat="44.23218" lon="6.61888">
        <ele>1756.4</ele>
        <time>2022-07-14T12:03:15Z</time>
      </trkpt>
      <trkpt lat="44.23227" lon="6.61885">
        <ele>1756.6</ele>
        <time>2022-07-14T12:03:24Z</time>
      </trkpt>
      <trkpt lat="44.23235" lon="6.61882">
        <ele>1756.2</ele>
        <time>2022-07-14T12:03:33Z</time>
      </trkpt>
      <trkpt lat="44.23245" lon="6.61881">
        <ele>1755.2</ele>
        <time>2022-07-14T12:03:43Z</time>
      </trkpt>
      <trkpt lat="44.23255" lon="6.61879">
        <ele>1754.4</ele>
        <time>2022-07-14T12:03:52Z</time>
      </trkpt>
      <trkpt lat="44.23265" lon="6.61881">
        <ele>1752.8</ele>
        <time>2022-07-14T12:04:01Z</time>
      </trkpt>
      <trkpt lat="44.23273" lon="6.61888">
        <ele>1750</ele>
        <time>2022-07-14T12:04:09Z</time>
      </trkpt>
      <trkpt lat="44.23275" lon="6.619">
        <ele>1747.4</ele>
        <time>2022-07-14T12:04:17Z</time>
      </trkpt>
      <trkpt lat="44.23272" lon="6.61912">
        <ele>1745.5</ele>
        <time>2022-07-14T12:04:27Z</time>
      </trkpt>
      <trkpt lat="44.23266" lon="6.61923">
        <ele>1743.8</ele>
        <time>2022-07-14T12:04:38Z</time>
      </trkpt>
      <trkpt lat="44.23259" lon="6.61932">
        <ele>1742.1</ele>
        <time>2022-07-14T12:04:50Z</time>
      </trkpt>
      <trkpt lat="44.23266" lon="6.61923">
        <ele>1743.7</ele>
        <time>2022-07-14T12:05:16Z</time>
      </trkpt>
      <trkpt lat="44.23256" lon="6.6192">
        <ele>1745.4</ele>
        <time>2022-07-14T12:05:33Z</time>
      </trkpt>
      <trkpt lat="44.23247" lon="6.61922">
        <ele>1745.9</ele>
        <time>2022-07-14T12:05:42Z</time>
      </trkpt>
      <trkpt lat="44.23238" lon="6.61923">
        <ele>1746</ele>
        <time>2022-07-14T12:05:50Z</time>
      </trkpt>
      <trkpt lat="44.23229" lon="6.61926">
        <ele>1745.5</ele>
        <time>2022-07-14T12:05:57Z</time>
      </trkpt>
      <trkpt lat="44.23219" lon="6.61928">
        <ele>1745.1</ele>
        <time>2022-07-14T12:06:05Z</time>
      </trkpt>
      <trkpt lat="44.23209" lon="6.61927">
        <ele>1744.4</ele>
        <time>2022-07-14T12:06:13Z</time>
      </trkpt>
      <trkpt lat="44.23199" lon="6.61927">
        <ele>1743.6</ele>
        <time>2022-07-14T12:06:21Z</time>
      </trkpt>
      <trkpt lat="44.2319" lon="6.61925">
        <ele>1742.8</ele>
        <time>2022-07-14T12:06:29Z</time>
      </trkpt>
      <trkpt lat="44.2318" lon="6.61924">
        <ele>1741.3</ele>
        <time>2022-07-14T12:06:37Z</time>
      </trkpt>
      <trkpt lat="44.23171" lon="6.61923">
        <ele>1739.4</ele>
        <time>2022-07-14T12:06:46Z</time>
      </trkpt>
      <trkpt lat="44.23163" lon="6.61917">
        <ele>1739.7</ele>
        <time>2022-07-14T12:06:54Z</time>
      </trkpt>
      <trkpt lat="44.23154" lon="6.61913">
        <ele>1738.3</ele>
        <time>2022-07-14T12:07:02Z</time>
      </trkpt>
      <trkpt lat="44.23146" lon="6.61907">
        <ele>1737.7</ele>
        <time>2022-07-14T12:07:10Z</time>
      </trkpt>
      <trkpt lat="44.23137" lon="6.619">
        <ele>1737.3</ele>
        <time>2022-07-14T12:07:18Z</time>
      </trkpt>
      <trkpt lat="44.23128" lon="6.61895">
        <ele>1736.7</ele>
        <time>2022-07-14T12:07:27Z</time>
      </trkpt>
      <trkpt lat="44.2312" lon="6.61887">
        <ele>1737.2</ele>
        <time>2022-07-14T12:07:36Z</time>
      </trkpt>
      <trkpt lat="44.23114" lon="6.61878">
        <ele>1738.5</ele>
        <time>2022-07-14T12:07:44Z</time>
      </trkpt>
      <trkpt lat="44.23106" lon="6.61871">
        <ele>1737.9</ele>
        <time>2022-07-14T12:07:54Z</time>
      </trkpt>
      <trkpt lat="44.23097" lon="6.61865">
        <ele>1737.1</ele>
        <time>2022-07-14T12:08:03Z</time>
      </trkpt>
      <trkpt lat="44.23089" lon="6.6186">
        <ele>1736.1</ele>
        <time>2022-07-14T12:08:12Z</time>
      </trkpt>
      <trkpt lat="44.2308" lon="6.61854">
        <ele>1734.2</ele>
        <time>2022-07-14T12:08:21Z</time>
      </trkpt>
      <trkpt lat="44.23072" lon="6.61847">
        <ele>1732.2</ele>
        <time>2022-07-14T12:08:30Z</time>
      </trkpt>
      <trkpt lat="44.23064" lon="6.61838">
        <ele>1730.9</ele>
        <time>2022-07-14T12:08:40Z</time>
      </trkpt>
      <trkpt lat="44.23058" lon="6.61828">
        <ele>1730.5</ele>
        <time>2022-07-14T12:08:56Z</time>
      </trkpt>
      <trkpt lat="44.23052" lon="6.61818">
        <ele>1730.2</ele>
        <time>2022-07-14T12:09:04Z</time>
      </trkpt>
      <trkpt lat="44.23045" lon="6.61809">
        <ele>1729.8</ele>
        <time>2022-07-14T12:09:12Z</time>
      </trkpt>
      <trkpt lat="44.23038" lon="6.618">
        <ele>1729.6</ele>
        <time>2022-07-14T12:09:20Z</time>
      </trkpt>
      <trkpt lat="44.23032" lon="6.6179">
        <ele>1730.1</ele>
        <time>2022-07-14T12:09:27Z</time>
      </trkpt>
      <trkpt lat="44.23026" lon="6.61781">
        <ele>1730.4</ele>
        <time>2022-07-14T12:09:36Z</time>
      </trkpt>
      <trkpt lat="44.23018" lon="6.61775">
        <ele>1729.6</ele>
        <time>2022-07-14T12:09:44Z</time>
      </trkpt>
      <trkpt lat="44.23011" lon="6.61767">
        <ele>1729.3</ele>
        <time>2022-07-14T12:09:53Z</time>
      </trkpt>
      <trkpt lat="44.23004" lon="6.61757">
        <ele>1728.6</ele>
        <time>2022-07-14T12:10:02Z</time>
      </trkpt>
      <trkpt lat="44.22996" lon="6.61748">
        <ele>1727.3</ele>
        <time>2022-07-14T12:10:10Z</time>
      </trkpt>
      <trkpt lat="44.2299" lon="6.6174">
        <ele>1727.1</ele>
        <time>2022-07-14T12:10:18Z</time>
      </trkpt>
      <trkpt lat="44.22984" lon="6.6173">
        <ele>1727.4</ele>
        <time>2022-07-14T12:10:26Z</time>
      </trkpt>
      <trkpt lat="44.22978" lon="6.61721">
        <ele>1727.1</ele>
        <time>2022-07-14T12:10:34Z</time>
      </trkpt>
      <trkpt lat="44.2297" lon="6.61713">
        <ele>1726.4</ele>
        <time>2022-07-14T12:10:44Z</time>
      </trkpt>
      <trkpt lat="44.22962" lon="6.61706">
        <ele>1726</ele>
        <time>2022-07-14T12:10:53Z</time>
      </trkpt>
      <trkpt lat="44.22953" lon="6.61701">
        <ele>1725.4</ele>
        <time>2022-07-14T12:11:02Z</time>
      </trkpt>
      <trkpt lat="44.22954" lon="6.61714">
        <ele>1722.4</ele>
        <time>2022-07-14T12:12:12Z</time>
      </trkpt>
      <trkpt lat="44.22959" lon="6.61725">
        <ele>1721.1</ele>
        <time>2022-07-14T12:12:20Z</time>
      </trkpt>
      <trkpt lat="44.22966" lon="6.61733">
        <ele>1721.4</ele>
        <time>2022-07-14T12:12:27Z</time>
      </trkpt>
      <trkpt lat="44.22973" lon="6.61742">
        <ele>1721.5</ele>
        <time>2022-07-14T12:12:35Z</time>
      </trkpt>
      <trkpt lat="44.22975" lon="6.61756">
        <ele>1719.8</ele>
        <time>2022-07-14T12:12:44Z</time>
      </trkpt>
      <trkpt lat="44.22979" lon="6.61769">
        <ele>1718.7</ele>
        <time>2022-07-14T12:12:52Z</time>
      </trkpt>
      <trkpt lat="44.2298" lon="6.61781">
        <ele>1716.7</ele>
        <time>2022-07-14T12:13:01Z</time>
      </trkpt>
      <trkpt lat="44.22985" lon="6.61793">
        <ele>1715.4</ele>
        <time>2022-07-14T12:13:09Z</time>
      </trkpt>
      <trkpt lat="44.2299" lon="6.61804">
        <ele>1713.7</ele>
        <time>2022-07-14T12:13:17Z</time>
      </trkpt>
      <trkpt lat="44.22996" lon="6.61814">
        <ele>1712.6</ele>
        <time>2022-07-14T12:13:25Z</time>
      </trkpt>
      <trkpt lat="44.23004" lon="6.61822">
        <ele>1712.3</ele>
        <time>2022-07-14T12:13:35Z</time>
      </trkpt>
      <trkpt lat="44.23011" lon="6.6183">
        <ele>1712.2</ele>
        <time>2022-07-14T12:13:43Z</time>
      </trkpt>
      <trkpt lat="44.23017" lon="6.6184">
        <ele>1711.2</ele>
        <time>2022-07-14T12:13:53Z</time>
      </trkpt>
      <trkpt lat="44.23024" lon="6.61851">
        <ele>1709.8</ele>
        <time>2022-07-14T12:14:03Z</time>
      </trkpt>
      <trkpt lat="44.23027" lon="6.61864">
        <ele>1707.3</ele>
        <time>2022-07-14T12:14:11Z</time>
      </trkpt>
      <trkpt lat="44.23033" lon="6.61874">
        <ele>1707.4</ele>
        <time>2022-07-14T12:14:19Z</time>
      </trkpt>
      <trkpt lat="44.23038" lon="6.61885">
        <ele>1706.5</ele>
        <time>2022-07-14T12:14:27Z</time>
      </trkpt>
      <trkpt lat="44.23043" lon="6.61897">
        <ele>1704.7</ele>
        <time>2022-07-14T12:14:36Z</time>
      </trkpt>
      <trkpt lat="44.23049" lon="6.61906">
        <ele>1703.9</ele>
        <time>2022-07-14T12:14:45Z</time>
      </trkpt>
      <trkpt lat="44.23055" lon="6.61917">
        <ele>1702.7</ele>
        <time>2022-07-14T12:14:54Z</time>
      </trkpt>
      <trkpt lat="44.23061" lon="6.61928">
        <ele>1702.4</ele>
        <time>2022-07-14T12:15:02Z</time>
      </trkpt>
      <trkpt lat="44.23067" lon="6.61939">
        <ele>1701.6</ele>
        <time>2022-07-14T12:15:11Z</time>
      </trkpt>
      <trkpt lat="44.2307" lon="6.61952">
        <ele>1699.3</ele>
        <time>2022-07-14T12:15:20Z</time>
      </trkpt>
      <trkpt lat="44.23076" lon="6.61962">
        <ele>1698.1</ele>
        <time>2022-07-14T12:15:28Z</time>
      </trkpt>
      <trkpt lat="44.23083" lon="6.61972">
        <ele>1697.1</ele>
        <time>2022-07-14T12:15:37Z</time>
      </trkpt>
      <trkpt lat="44.2309" lon="6.61982">
        <ele>1695.7</ele>
        <time>2022-07-14T12:15:47Z</time>
      </trkpt>
      <trkpt lat="44.23097" lon="6.6199">
        <ele>1695.1</ele>
        <time>2022-07-14T12:15:56Z</time>
      </trkpt>
      <trkpt lat="44.23105" lon="6.61998">
        <ele>1694.3</ele>
        <time>2022-07-14T12:16:05Z</time>
      </trkpt>
      <trkpt lat="44.23113" lon="6.62007">
        <ele>1692.9</ele>
        <time>2022-07-14T12:16:15Z</time>
      </trkpt>
      <trkpt lat="44.2312" lon="6.62017">
        <ele>1691.5</ele>
        <time>2022-07-14T12:16:24Z</time>
      </trkpt>
      <trkpt lat="44.23125" lon="6.62028">
        <ele>1689.2</ele>
        <time>2022-07-14T12:16:33Z</time>
      </trkpt>
      <trkpt lat="44.23131" lon="6.62038">
        <ele>1687.4</ele>
        <time>2022-07-14T12:16:43Z</time>
      </trkpt>
      <trkpt lat="44.23138" lon="6.62048">
        <ele>1685.9</ele>
        <time>2022-07-14T12:16:54Z</time>
      </trkpt>
      <trkpt lat="44.23144" lon="6.62057">
        <ele>1685</ele>
        <time>2022-07-14T12:17:03Z</time>
      </trkpt>
      <trkpt lat="44.2315" lon="6.62066">
        <ele>1683.3</ele>
        <time>2022-07-14T12:17:12Z</time>
      </trkpt>
      <trkpt lat="44.23157" lon="6.62076">
        <ele>1682</ele>
        <time>2022-07-14T12:17:24Z</time>
      </trkpt>
      <trkpt lat="44.23164" lon="6.62084">
        <ele>1681</ele>
        <time>2022-07-14T12:17:33Z</time>
      </trkpt>
      <trkpt lat="44.23171" lon="6.62094">
        <ele>1679.4</ele>
        <time>2022-07-14T12:17:42Z</time>
      </trkpt>
      <trkpt lat="44.23179" lon="6.62101">
        <ele>1678.1</ele>
        <time>2022-07-14T12:17:51Z</time>
      </trkpt>
      <trkpt lat="44.23187" lon="6.62107">
        <ele>1677.4</ele>
        <time>2022-07-14T12:18:00Z</time>
      </trkpt>
      <trkpt lat="44.23195" lon="6.62115">
        <ele>1675.8</ele>
        <time>2022-07-14T12:18:09Z</time>
      </trkpt>
      <trkpt lat="44.23204" lon="6.62119">
        <ele>1674.9</ele>
        <time>2022-07-14T12:18:18Z</time>
      </trkpt>
      <trkpt lat="44.23214" lon="6.62121">
        <ele>1674.5</ele>
        <time>2022-07-14T12:18:26Z</time>
      </trkpt>
      <trkpt lat="44.23223" lon="6.62123">
        <ele>1674.2</ele>
        <time>2022-07-14T12:18:36Z</time>
      </trkpt>
      <trkpt lat="44.23232" lon="6.62124">
        <ele>1673.7</ele>
        <time>2022-07-14T12:18:44Z</time>
      </trkpt>
      <trkpt lat="44.23242" lon="6.62124">
        <ele>1673</ele>
        <time>2022-07-14T12:18:53Z</time>
      </trkpt>
      <trkpt lat="44.23252" lon="6.62126">
        <ele>1671.9</ele>
        <time>2022-07-14T12:19:03Z</time>
      </trkpt>
      <trkpt lat="44.23261" lon="6.62128">
        <ele>1670.2</ele>
        <time>2022-07-14T12:19:12Z</time>
      </trkpt>
      <trkpt lat="44.2327" lon="6.62126">
        <ele>1669.7</ele>
        <time>2022-07-14T12:19:20Z</time>
      </trkpt>
      <trkpt lat="44.2328" lon="6.62124">
        <ele>1669.7</ele>
        <time>2022-07-14T12:19:29Z</time>
      </trkpt>
      <trkpt lat="44.23289" lon="6.62122">
        <ele>1668.9</ele>
        <time>2022-07-14T12:19:37Z</time>
      </trkpt>
      <trkpt lat="44.23298" lon="6.62122">
        <ele>1667.4</ele>
        <time>2022-07-14T12:19:48Z</time>
      </trkpt>
      <trkpt lat="44.23308" lon="6.62118">
        <ele>1666.9</ele>
        <time>2022-07-14T12:20:13Z</time>
      </trkpt>
      <trkpt lat="44.23317" lon="6.62119">
        <ele>1664.6</ele>
        <time>2022-07-14T12:20:22Z</time>
      </trkpt>
      <trkpt lat="44.23326" lon="6.62115">
        <ele>1664.3</ele>
        <time>2022-07-14T12:20:30Z</time>
      </trkpt>
      <trkpt lat="44.23335" lon="6.62111">
        <ele>1663.7</ele>
        <time>2022-07-14T12:20:38Z</time>
      </trkpt>
      <trkpt lat="44.23343" lon="6.62107">
        <ele>1663</ele>
        <time>2022-07-14T12:20:46Z</time>
      </trkpt>
      <trkpt lat="44.23353" lon="6.62102">
        <ele>1662.3</ele>
        <time>2022-07-14T12:20:54Z</time>
      </trkpt>
      <trkpt lat="44.23361" lon="6.62094">
        <ele>1662.6</ele>
        <time>2022-07-14T12:21:03Z</time>
      </trkpt>
      <trkpt lat="44.23368" lon="6.62085">
        <ele>1663.7</ele>
        <time>2022-07-14T12:21:13Z</time>
      </trkpt>
      <trkpt lat="44.23378" lon="6.62082">
        <ele>1662.2</ele>
        <time>2022-07-14T12:21:23Z</time>
      </trkpt>
      <trkpt lat="44.23387" lon="6.62082">
        <ele>1659.8</ele>
        <time>2022-07-14T12:21:43Z</time>
      </trkpt>
      <trkpt lat="44.23395" lon="6.62073">
        <ele>1659</ele>
        <time>2022-07-14T12:21:52Z</time>
      </trkpt>
      <trkpt lat="44.23403" lon="6.62066">
        <ele>1657.6</ele>
        <time>2022-07-14T12:22:01Z</time>
      </trkpt>
      <trkpt lat="44.23411" lon="6.62059">
        <ele>1656.3</ele>
        <time>2022-07-14T12:22:11Z</time>
      </trkpt>
      <trkpt lat="44.23421" lon="6.62057">
        <ele>1652.9</ele>
        <time>2022-07-14T12:22:20Z</time>
      </trkpt>
      <trkpt lat="44.2343" lon="6.62052">
        <ele>1650.6</ele>
        <time>2022-07-14T12:22:29Z</time>
      </trkpt>
      <trkpt lat="44.23438" lon="6.62044">
        <ele>1648.9</ele>
        <time>2022-07-14T12:22:38Z</time>
      </trkpt>
      <trkpt lat="44.23446" lon="6.62038">
        <ele>1647</ele>
        <time>2022-07-14T12:22:47Z</time>
      </trkpt>
      <trkpt lat="44.23454" lon="6.62028">
        <ele>1645.5</ele>
        <time>2022-07-14T12:22:56Z</time>
      </trkpt>
      <trkpt lat="44.2346" lon="6.62017">
        <ele>1644.5</ele>
        <time>2022-07-14T12:23:05Z</time>
      </trkpt>
      <trkpt lat="44.23467" lon="6.62007">
        <ele>1643</ele>
        <time>2022-07-14T12:23:14Z</time>
      </trkpt>
      <trkpt lat="44.23473" lon="6.61996">
        <ele>1642.5</ele>
        <time>2022-07-14T12:23:22Z</time>
      </trkpt>
      <trkpt lat="44.23477" lon="6.61985">
        <ele>1642.7</ele>
        <time>2022-07-14T12:23:30Z</time>
      </trkpt>
      <trkpt lat="44.23484" lon="6.61976">
        <ele>1641.6</ele>
        <time>2022-07-14T12:23:38Z</time>
      </trkpt>
      <trkpt lat="44.23491" lon="6.61968">
        <ele>1640.6</ele>
        <time>2022-07-14T12:23:47Z</time>
      </trkpt>
      <trkpt lat="44.235" lon="6.61961">
        <ele>1639</ele>
        <time>2022-07-14T12:23:56Z</time>
      </trkpt>
      <trkpt lat="44.23507" lon="6.61953">
        <ele>1637.9</ele>
        <time>2022-07-14T12:24:04Z</time>
      </trkpt>
      <trkpt lat="44.23515" lon="6.61945">
        <ele>1636.3</ele>
        <time>2022-07-14T12:24:15Z</time>
      </trkpt>
      <trkpt lat="44.23523" lon="6.61937">
        <ele>1635.1</ele>
        <time>2022-07-14T12:24:25Z</time>
      </trkpt>
      <trkpt lat="44.2353" lon="6.61929">
        <ele>1633.8</ele>
        <time>2022-07-14T12:24:34Z</time>
      </trkpt>
      <trkpt lat="44.23538" lon="6.61922">
        <ele>1632.3</ele>
        <time>2022-07-14T12:24:42Z</time>
      </trkpt>
      <trkpt lat="44.23542" lon="6.6191">
        <ele>1633</ele>
        <time>2022-07-14T12:24:55Z</time>
      </trkpt>
      <trkpt lat="44.23549" lon="6.61901">
        <ele>1631.2</ele>
        <time>2022-07-14T12:25:04Z</time>
      </trkpt>
    </trkseg>
  </trk>
</gpx>